Results will appear here shortly after the races have finished.

There will also hopefully be one or more links to race photos.

Meanwhile please ignore any test results below.

Swim Rutland 2022 all results

EventId EventDescr Overall Pos Gender Pos Gender Categ Pos Category First name Last name Race num Club Time Split time (8k)
500 Mini 500m 1 1 Male 1 Under 18 Joseph Greaves 33 Corby Amateur Swimming Club 00:07:32 00:07:00
500 Mini 500m 2 1 Female 1 Under 18 Evie Coburn 8 Melton Mowbray Swimming Club 00:08:01 00:07:00
500 Mini 500m 3 2 Female 2 Under 18 Lauren Calvert 4 Team Luton 00:08:13 00:08:00
500 Mini 500m 4 3 Female 1 Ages 30 - 34 Claire Bracken 40 00:09:17 00:09:00
500 Mini 500m 5 4 Female 3 Under 18 Eleanor Lord 17 00:10:56 00:10:00
500 Mini 500m 6 5 Female 1 Ages 55 - 59 Caroline Wills 497 Lincoln Tri 00:12:11 00:12:00
500 Mini 500m 7 2 Male 1 Ages 35 - 39 Dan Taberner 36 00:12:34 00:12:00
500 Mini 500m 8 6 Female 1 Ages 50 - 54 Elaine Everitt-Smith 9 Netherton open water swimming 00:12:39 00:12:00
500 Mini 500m 9 3 Male 1 Ages 18 - 24 William Stephens 35 00:12:52 00:12:00
500 Mini 500m 10 7 Female 1 Ages 45 - 49 Bridget Godfrey 11 00:13:10 00:13:00
500 Mini 500m 11 8 Female 1 Ages 25 - 29 Amy Wells 26 00:13:16 00:13:00
500 Mini 500m 12 9 Female 2 Ages 55 - 59 Jevgenija Plummer 19 00:13:18 00:13:00
500 Mini 500m 13 10 Female 1 Ages 35 - 39 Rebecca Taylor 23 00:13:21 00:13:00
500 Mini 500m 14 4 Male 1 Ages 50 - 54 Phil Stafford 39 00:13:31 00:13:00
500 Mini 500m 15 11 Female 2 Ages 30 - 34 Viktorija Sherriff 22 00:14:10 00:14:00
500 Mini 500m 16 12 Female 2 Ages 45 - 49 Helen Gridley 117 00:14:15 00:14:00
500 Mini 500m 17 5 Male 1 Ages 45 - 49 Ian Brady 32 00:14:32 00:14:00
500 Mini 500m 18 13 Female 3 Ages 55 - 59 Clare Moss 18 00:14:49 00:14:00
500 Mini 500m 19 6 Male 2 Ages 45 - 49 Jason Temprell 37 00:15:44 00:15:00
500 Mini 500m 20 14 Female 4 Ages 55 - 59 Rachel Hodson-Gibbons 16 00:17:05 00:16:00
500 Mini 500m 21 15 Female 2 Ages 50 - 54 Sara Wright 28 00:17:13 00:17:00
500 Mini 500m 22 16 Female 5 Ages 55 - 59 Dawn Hilton 15 00:17:26 00:17:00
500 Mini 500m 23 17 Female 6 Ages 55 - 59 Eileen Moore 348 00:18:29 00:18:00
500 Mini 500m 24 18 Female 2 Ages 35 - 39 Caroline Roper 20 Pdsa 00:19:29 00:19:00
500 Mini 500m 25 19 Female 2 Ages 25 - 29 Katherine Van Kroonenburg 25 00:19:30 00:19:00
500 Mini 500m 26 20 Female 3 Ages 30 - 34 Freya Satchell 21 00:19:31 00:19:00
500 Mini 500m 27 21 Female 7 Ages 55 - 59 Helen Clarke 5 00:21:44 00:21:00
500 Mini 500m 28 22 Female 8 Ages 55 - 59 Kathryn Tracy 24 00:22:04 00:21:00
500 Mini 500m 29 7 Male 1 Ages 55 - 59 David Heppingstall 34 00:22:10 00:22:00
500 Mini 500m 30 23 Female 4 Under 18 Scarlett Clarke 6 00:24:25 00:24:00
500 Mini 500m 31 24 Female 1 Ages 40 - 44 Sophie Clarke 7 00:24:27 00:24:00
500 Mini 500m 32 25 Female 3 Ages 45 - 49 Debbie Hilton 14 00:28:55 00:28:00
500 Mini 500m 33 26 Female 9 Ages 55 - 59 Dorothy Yeates 29 00:33:47 00:33:00
500 Mini 500m 34 1 Unknown Number 337 337 01:11:49 01:11:00
2,000 2km 1 1 Male 1 Ages 35 - 39 Jamie Hockley 276 100% Tri 00:31:53 01:32:00
2,000 2km 2 1 Female 1 Under 18 Isla Fulluck-Holmes 108 City of Peterborough Swimming Club 00:31:54 00:43:00
2,000 2km 3 2 Male 1 Ages 60 - 64 Caerveth Shewell-Cooper 304 Potters bar 00:32:40 00:47:00
2,000 2km 4 2 Female 2 Under 18 Lucy Dando 90 Corby Amateur Swimming Club 00:32:44 01:19:00
2,000 2km 5 3 Male 1 Ages 18 - 24 Phil Davis 253 Norwich Swan SC 00:32:57 01:20:00
2,000 2km 6 3 Female 1 Ages 35 - 39 Joanne Griffiths 118 Bedworth Masters 00:33:00 01:23:00
2,000 2km 7 4 Male 1 Ages 45 - 49 Glen Gilbert 264 00:33:13 01:24:00
2,000 2km 8 5 Male 1 Ages 55 - 59 Julian Pavier 295 Worksop Dolphins 00:33:55 00:45:00
2,000 2km 9 6 Male 2 Ages 55 - 59 Simon Bradford 677 00:34:17 00:56:00
2,000 2km 10 4 Female 3 Under 18 Harriet Casey 80 Corby Swimming Club 00:34:28 01:20:00
2,000 2km 11 7 Male 1 Under 18 Tom Naylor 292 Stamford School Swim Team 00:35:54 00:46:00
2,000 2km 12 5 Female 1 Ages 30 - 34 Jane Beagles 63 00:36:03 01:22:00
2,000 2km 13 6 Female 4 Under 18 Sarah Dew 93 Oadby & Wigston Swimming Club 00:36:15 00:49:00
2,000 2km 14 8 Male 3 Ages 55 - 59 Carl Baxter 237 00:37:11 01:23:00
2,000 2km 15 7 Female 5 Under 18 Amy Taylor 208 Oadby & Wigston Swimming Club 00:37:27 01:29:00
2,000 2km 16 9 Male 4 Ages 55 - 59 Dave Wall 319 00:37:37 01:35:00
2,000 2km 17 8 Female 1 Ages 25 - 29 Rosie Earnden 99 00:38:01 01:36:00
2,000 2km 18 10 Male 5 Ages 55 - 59 Andy Williams 321 Cambridge Tri / AM Activ Race Team 00:38:09 01:24:00
2,000 2km 19 11 Male 2 Ages 45 - 49 Christopher Duncan 255 Lincoln Tri 00:38:16 01:32:00
2,000 2km 20 12 Male 1 Ages 40 - 44 Anselmo Pelembe 296 00:38:52 01:32:00
2,000 2km 21 9 Female 6 Under 18 Grace Mason 160 Bishop's Stortford SC 00:38:56 00:51:00
2,000 2km 22 13 Male 2 Ages 40 - 44 Ross Appleton 232 00:39:09 01:58:00
2,000 2km 23 14 Male 1 Ages 25 - 29 Richard Gandeborn 263 TFN Tri Club 00:39:15 01:33:00
2,000 2km 24 15 Male 2 Under 18 Riley Brown 242 00:39:50 01:37:00
2,000 2km 25 10 Female 7 Under 18 Chloe Taylor 207 Oadby & Wigston Swimming Club 00:39:58 01:32:00
2,000 2km 26 16 Male 1 Ages 50 - 54 Jonathan Greaves 268 WVTri 00:39:59 00:50:00
2,000 2km 27 17 Male 6 Ages 55 - 59 Eugene Gormley 267 Potters bar 00:40:16 00:52:00
2,000 2km 28 11 Female 8 Under 18 Maisy Smith 200 Owswimclub@gmail.com 00:40:33 01:32:00
2,000 2km 29 18 Male 1 Ages 70 - 74 Rodney Marks 283 Deeping swimming Club 00:41:14 01:27:00
2,000 2km 30 19 Male 2 Ages 60 - 64 Raymond Richardson 298 00:41:42 01:34:00
2,000 2km 31 20 Male 3 Ages 45 - 49 Dan Williams 322 00:42:52 01:35:00
2,000 2km 32 21 Male 4 Ages 45 - 49 Colin Brackley 240 00:42:53 01:30:00
2,000 2km 33 22 Male 2 Ages 50 - 54 Dave Kenyon 281 00:43:17 00:56:00
2,000 2km 34 23 Male 3 Ages 50 - 54 Robert Brown 243 00:43:48 01:41:00
2,000 2km 35 24 Male 2 Ages 25 - 29 Richard Eastwick 256 00:44:08 01:36:00
2,000 2km 36 25 Male 4 Ages 50 - 54 Paul Varnam 317 00:44:08 01:00:00
2,000 2km 37 26 Male 2 Ages 35 - 39 Gareth Simpson 305 Revolution Tri 00:44:09 01:37:00
2,000 2km 38 27 Male 3 Ages 35 - 39 Chris Brown 244 00:44:40 01:37:00
2,000 2km 39 12 Female 1 Ages 40 - 44 Carmela Rizza Hernandez 670 00:44:58 01:38:00
2,000 2km 40 13 Female 2 Ages 25 - 29 Victoria Sharpe 194 Stratford Upon avon Tri Club 00:45:18 01:05:00
2,000 2km 41 28 Male 3 Ages 40 - 44 Jamie Brown 245 00:45:31 01:32:00
2,000 2km 42 14 Female 1 Ages 50 - 54 Elaine Bradford 676 00:45:37 01:07:00
2,000 2km 43 29 Male 5 Ages 45 - 49 Warren Hodgett 277 00:45:45 01:38:00
2,000 2km 44 15 Female 2 Ages 35 - 39 Michelle Kent 428 00:45:59 01:33:00
2,000 2km 45 30 Male 3 Ages 60 - 64 Derek Hart 273 00:46:06 01:39:00
2,000 2km 46 16 Female 3 Ages 35 - 39 Margaret Forman 105 00:46:20 01:33:00
2,000 2km 47 17 Female 2 Ages 40 - 44 Fiona Phillips 178 00:46:29 01:37:00
2,000 2km 48 31 Male 7 Ages 55 - 59 Paul Harknett 272 00:46:32 01:02:00
2,000 2km 49 32 Male 4 Ages 60 - 64 Steve Rogers 301 Belvoir Tri Club 00:46:38 01:38:00
2,000 2km 50 33 Male 1 Ages 30 - 34 Daniel Jackson 279 00:46:43 01:03:00
2,000 2km 51 34 Male 2 Ages 30 - 34 Tom Rickett 299 00:46:51 01:02:00
2,000 2km 52 18 Female 3 Ages 25 - 29 Eleanor Blakey 478 00:47:00 02:04:00
2,000 2km 53 19 Female 1 Ages 45 - 49 Claire Boden 66 Stafford Tri Club 00:47:01 01:34:00
2,000 2km 54 35 Male 8 Ages 55 - 59 Dominic Mason 284 Bishop's Stortford SC 00:47:01 01:00:00
2,000 2km 55 36 Male 5 Ages 50 - 54 Jon Naylor 291 00:47:32 00:58:00
2,000 2km 56 20 Female 3 Ages 40 - 44 Helen Trill 213 00:47:33 01:02:00
2,000 2km 57 37 Male 4 Ages 40 - 44 Ian Walker 318 00:47:43 00:58:00
2,000 2km 58 38 Male 6 Ages 45 - 49 Matt Tyers 315 00:47:49 00:59:00
2,000 2km 59 39 Male 5 Ages 40 - 44 Robert Hewitt 275 00:48:02 01:34:00
2,000 2km 60 21 Female 4 Ages 35 - 39 Amanda Hewitt 128 00:48:06 01:34:00
2,000 2km 61 40 Male 4 Ages 35 - 39 Daniel Winfield-Chislett 325 00:48:11 01:01:00
2,000 2km 62 22 Female 9 Under 18 Gracie Ward 219 00:49:20 01:40:00
2,000 2km 63 23 Female 5 Ages 35 - 39 Victoria Roberts 333 00:49:25 01:06:00
2,000 2km 64 24 Female 1 Ages 60 - 64 Val Moore 170 00:49:37 01:36:00
2,000 2km 65 25 Female 6 Ages 35 - 39 Diana Lynch 155 00:49:39 01:11:00
2,000 2km 66 41 Male 6 Ages 40 - 44 Kevin Ward 320 00:49:48 01:41:00
2,000 2km 67 26 Female 2 Ages 50 - 54 Anna Dutton 97 Stafford Tri Club 00:49:50 01:37:00
2,000 2km 68 27 Female 2 Ages 60 - 64 Pauline Batten 61 00:49:56 01:00:00
2,000 2km 69 28 Female 2 Ages 45 - 49 Sarah French 106 00:50:03 01:06:00
2,000 2km 70 29 Female 7 Ages 35 - 39 Emma Light 152 00:50:09 01:08:00
2,000 2km 71 30 Female 3 Ages 50 - 54 Sarah Watson 221 00:50:22 01:07:00
2,000 2km 72 42 Male 3 Ages 30 - 34 Dave Golding 265 00:50:25 01:08:00
2,000 2km 73 31 Female 4 Ages 50 - 54 Ros Crudgington 89 00:50:51 01:37:00
2,000 2km 74 32 Female 5 Ages 50 - 54 Jo Hunt 418 Wolds Breakfast Club 00:50:53 01:37:00
2,000 2km 75 43 Male 3 Ages 25 - 29 Thomas Stephens 307 00:51:02 01:44:00
2,000 2km 76 33 Female 4 Ages 25 - 29 Fiona Smith 201 00:51:13 01:02:00
2,000 2km 77 34 Female 3 Ages 45 - 49 Helen Kruse 147 00:51:32 01:02:00
2,000 2km 78 44 Male 6 Ages 50 - 54 Mark Mcgowen 286 March Marlins 00:51:33 01:08:00
2,000 2km 79 35 Female 4 Ages 45 - 49 Lindsay Jefferies 138 00:51:37 01:06:00
2,000 2km 80 45 Male 7 Ages 40 - 44 Peter Booth 239 00:51:49 01:45:00
2,000 2km 81 36 Female 1 Ages 55 - 59 Deborah Kaye 141 00:52:07 01:39:00
2,000 2km 82 46 Male 5 Ages 35 - 39 Chris Bramley-Howell 241 00:52:17 01:03:00
2,000 2km 83 37 Female 6 Ages 50 - 54 Eleanor Mickleburgh 167 00:52:25 01:10:00
2,000 2km 84 38 Female 10 Under 18 Hana Mian 166 00:52:33 01:42:00
2,000 2km 85 39 Female 2 Ages 55 - 59 Jacqueline Akers 51 Blue Lagooners 00:52:52 01:09:00
2,000 2km 86 47 Male 7 Ages 50 - 54 Jason Tyrrell 316 00:53:09 01:40:00
2,000 2km 87 48 Male 9 Ages 55 - 59 John Chadwick 246 00:53:18 01:14:00
2,000 2km 88 40 Female 5 Ages 45 - 49 Nicola Chadwick 81 00:53:18 01:14:00
2,000 2km 89 49 Male 1 Ages 75 - 79 John Bennett 238 Tewkesbury Tri Club 00:53:22 01:53:00
2,000 2km 90 50 Male 6 Ages 35 - 39 Terry Connolly 250 Kings Lynn Triathlon Club 00:53:30 01:40:00
2,000 2km 91 41 Female 3 Ages 60 - 64 Lynne Hutchinson 136 00:53:30 02:11:00
2,000 2km 92 42 Female 8 Ages 35 - 39 Victoria Shardlow 192 00:53:33 01:41:00
2,000 2km 93 51 Male 8 Ages 40 - 44 Brian Temprell 310 00:53:42 01:05:00
2,000 2km 94 43 Female 4 Ages 40 - 44 Jo Eaton 391 WVTri 00:53:44 01:40:00
2,000 2km 95 44 Female 5 Ages 40 - 44 Suyeon Kim 145 00:53:50 01:40:00
2,000 2km 96 45 Female 6 Ages 45 - 49 Sarah Farnsworth 101 Long Eaton Triathlon Club 00:53:59 01:06:00
2,000 2km 97 46 Female 7 Ages 50 - 54 Jenifer Hulme 135 00:53:59 01:47:00
2,000 2km 98 52 Male 5 Ages 60 - 64 Trevor Marvell 328 00:54:10 01:05:00
2,000 2km 99 53 Male 8 Ages 50 - 54 Scott Temprell 311 Belvoir Tri Club 00:54:19 01:05:00
2,000 2km 100 54 Male 9 Ages 50 - 54 Jason Theobald 312 00:54:26 01:13:00
2,000 2km 101 55 Male 1 Ages 65 - 69 John Heathcote 274 00:54:41 01:05:00
2,000 2km 102 47 Female 6 Ages 40 - 44 Gilly Anderson 357 00:54:57 01:42:00
2,000 2km 103 48 Female 1 Ages 18 - 24 Honor Harris 125 00:55:05 02:12:00
2,000 2km 104 49 Female 7 Ages 40 - 44 Jennie Macphee 159 00:55:14 01:11:00
2,000 2km 105 56 Male 10 Ages 50 - 54 Stephen Starr 306 00:56:05 01:49:00
2,000 2km 106 50 Female 5 Ages 25 - 29 Rosalind Wilson 226 00:56:07 01:07:00
2,000 2km 107 51 Female 8 Ages 50 - 54 Amanda Holden 132 00:56:09 01:46:00
2,000 2km 108 52 Female 4 Ages 60 - 64 Sue Lapidge 149 00:56:40 01:43:00
2,000 2km 109 53 Female 3 Ages 55 - 59 Julia Dolman 96 cambridge Tri club 00:56:44 01:09:00
2,000 2km 110 57 Male 9 Ages 40 - 44 Mark Evans 259 00:56:55 01:48:00
2,000 2km 111 58 Male 3 Under 18 Rhys Hutchinson 278 00:57:06 02:14:00
2,000 2km 112 59 Male 6 Ages 60 - 64 David Quibell 297 00:57:09 01:24:00
2,000 2km 113 54 Female 9 Ages 50 - 54 Tracey Poole 331 00:57:37 01:10:00
2,000 2km 114 55 Female 7 Ages 45 - 49 Julia Shaw 195 00:57:55 01:48:00
2,000 2km 115 56 Female 9 Ages 35 - 39 Lauri Bond 67 00:58:07 01:52:00
2,000 2km 116 60 Male 10 Ages 40 - 44 Stefan Dalberg 251 00:58:08 01:18:00
2,000 2km 117 57 Female 10 Ages 35 - 39 Susanna Goodall 111 00:58:12 02:15:00
2,000 2km 118 61 Male 7 Ages 45 - 49 Jake Williams 334 00:58:28 01:10:00
2,000 2km 119 58 Female 5 Ages 60 - 64 Deborah Tyler 214 00:58:40 01:44:00
2,000 2km 120 59 Female 4 Ages 55 - 59 Nicky Phillips 177 00:58:49 01:46:00
2,000 2km 121 60 Female 8 Ages 40 - 44 Georgina Fenton 102 00:59:07 01:59:00
2,000 2km 122 61 Female 6 Ages 60 - 64 Karen Seaber 191 00:59:20 01:14:00
2,000 2km 123 62 Female 7 Ages 60 - 64 Catherine Young 231 Tri-Harman 00:59:31 01:15:00
2,000 2km 124 63 Female 5 Ages 55 - 59 Jennifer Esdon 392 00:59:50 01:14:00
2,000 2km 125 64 Female 6 Ages 55 - 59 Sue Barrow 60 Rutland Running and Triathlon Club 01:00:06 01:59:00
2,000 2km 126 65 Female 10 Ages 50 - 54 Joanne Beach 62 01:00:16 01:50:00
2,000 2km 127 66 Female 6 Ages 25 - 29 Danielle Lee 336 01:00:18 01:56:00
2,000 2km 128 62 Male 10 Ages 55 - 59 Kevin Appleton 233 Ashbourne Triathlon Club 01:00:29 01:13:00
2,000 2km 129 63 Male 11 Ages 55 - 59 Steve Latter 282 01:00:39 01:19:00
2,000 2km 130 64 Male 11 Ages 50 - 54 Sean Robertson 300 01:00:42 01:58:00
2,000 2km 131 67 Female 8 Ages 45 - 49 Charlotte Barrow 59 01:00:43 01:54:00
2,000 2km 132 68 Female 9 Ages 40 - 44 Shirelle Tilbrook 211 01:00:54 01:18:00
2,000 2km 133 69 Female 8 Ages 60 - 64 Julie O'malley 172 01:00:55 02:20:00
2,000 2km 134 65 Male 2 Ages 18 - 24 Oscar Banton 338 01:01:04 02:19:00
2,000 2km 135 70 Female 7 Ages 55 - 59 Rachel Wilson 227 01:01:19 01:13:00
2,000 2km 136 66 Male 2 Ages 70 - 74 Steve Seaber 303 01:01:20 01:16:00
2,000 2km 137 67 Male 12 Ages 50 - 54 Guy Sandford 302 01:01:31 01:47:00
2,000 2km 138 71 Female 10 Ages 40 - 44 Hanna Coburn 86 01:01:33 01:12:00
2,000 2km 139 72 Female 11 Ages 50 - 54 Catherine Kemble 144 01:01:52 01:23:00
2,000 2km 140 73 Female 8 Ages 55 - 59 Bev Walmsley 218 01:02:21 01:50:00
2,000 2km 141 74 Female 12 Ages 50 - 54 Jane Flint 104 01:02:23 01:50:00
2,000 2km 142 75 Female 9 Ages 45 - 49 Rachel Boyles 68 01:02:37 01:54:00
2,000 2km 143 76 Female 13 Ages 50 - 54 Vicky Finn 103 01:02:56 01:14:00
2,000 2km 144 68 Male 3 Ages 18 - 24 Max Harris 339 01:03:14 02:21:00
2,000 2km 145 77 Female 9 Ages 60 - 64 Mel Hasnip-Norton 126 01:03:27 01:20:00
2,000 2km 146 78 Female 11 Ages 40 - 44 Lynsey Lambrey De Souza 148 01:03:34 01:19:00
2,000 2km 147 79 Female 11 Ages 35 - 39 Laura Halford 121 01:03:35 01:57:00
2,000 2km 148 80 Female 12 Ages 35 - 39 Rachel Johal 139 01:03:38 02:22:00
2,000 2km 149 69 Male 11 Ages 40 - 44 Stephen Johal 280 01:03:40 02:22:00
2,000 2km 150 81 Female 9 Ages 55 - 59 Joanne Galkowski 109 01:03:40 01:53:00
2,000 2km 151 82 Female 10 Ages 45 - 49 Ann-Marie Mcdonnell 163 Lake 32 01:03:47 01:17:00
2,000 2km 152 83 Female 10 Ages 55 - 59 Kim Burton 76 01:03:56 01:59:00
2,000 2km 153 84 Female 14 Ages 50 - 54 Michelle Gee 110 01:03:58 01:59:00
2,000 2km 154 85 Female 11 Ages 55 - 59 Emma Hanson 123 01:04:51 01:19:00
2,000 2km 155 86 Female 12 Ages 40 - 44 Hayley Simpson 199 01:04:58 01:56:00
2,000 2km 156 87 Female 13 Ages 35 - 39 Harriet Brewerton 72 01:05:05 01:21:00
2,000 2km 157 88 Female 14 Ages 35 - 39 Kate Webbley 223 01:05:05 01:55:00
2,000 2km 158 89 Female 15 Ages 50 - 54 Yvette Jamieson 137 01:05:55 01:32:00
2,000 2km 159 90 Female 13 Ages 40 - 44 Nicole Allen 52 01:06:19 01:19:00
2,000 2km 160 91 Female 12 Ages 55 - 59 Judith Harper 124 Rugby Triathlon Club 01:06:22 01:21:00
2,000 2km 161 70 Male 12 Ages 55 - 59 Stephen Wilson 324 01:06:36 01:18:00
2,000 2km 162 71 Male 13 Ages 50 - 54 Lee Guffick 270 01:06:44 01:23:00
2,000 2km 163 92 Female 10 Ages 60 - 64 Janice Rowan 188 01:07:12 01:24:00
2,000 2km 164 93 Female 15 Ages 35 - 39 Tina Lathrope 150 Beccles and Bungay harriers 01:07:16 01:24:00
2,000 2km 165 94 Female 11 Ages 45 - 49 Shei-Lin Simmonds 198 01:07:31 02:01:00
2,000 2km 166 95 Female 13 Ages 55 - 59 Ruth Kent 429 01:07:42 01:18:00
2,000 2km 167 96 Female 1 Ages 65 - 69 Carol Shardlow 193 01:07:51 01:55:00
2,000 2km 168 72 Male 8 Ages 45 - 49 Guy Bibby 329 01:08:10 01:54:00
2,000 2km 169 97 Female 11 Under 18 Freya Bibby 330 01:08:10 01:54:00
2,000 2km 170 73 Male 4 Ages 18 - 24 David Buxton 335 01:08:31 01:20:00
2,000 2km 171 98 Female 7 Ages 25 - 29 Joy M Aston 157 01:08:50 01:23:00
2,000 2km 172 99 Female 14 Ages 40 - 44 Jo Shephard 327 01:09:11 01:59:00
2,000 2km 173 100 Female 2 Ages 65 - 69 Pam O'connell 454 01:09:21 01:28:00
2,000 2km 174 101 Female 12 Ages 45 - 49 Susan Paddock 174 01:09:22 01:57:00
2,000 2km 175 102 Female 14 Ages 55 - 59 Wendy Broad 73 The hub 01:10:15 02:04:00
2,000 2km 176 103 Female 15 Ages 55 - 59 Muna Roberts 186 01:10:17 02:03:00
2,000 2km 177 104 Female 3 Ages 65 - 69 Julia Vardy 216 vegan runners uk 01:10:49 01:58:00
2,000 2km 178 105 Female 4 Ages 65 - 69 Liz Maclean 158 01:11:27 01:28:00
2,000 2km 179 106 Female 15 Ages 40 - 44 Fay Kelham 143 01:11:37 01:58:00
2,000 2km 180 107 Female 11 Ages 60 - 64 Karin Coady 85 01:12:00 01:59:00
2,000 2km 181 74 Male 12 Ages 40 - 44 Luke Elliott 258 01:12:12 02:05:00
2,000 2km 182 108 Female 16 Ages 40 - 44 Claire Elliott 100 01:12:15 02:05:00
2,000 2km 183 109 Female 12 Ages 60 - 64 Lorraine Squires 206 01:12:22 01:30:00
2,000 2km 184 110 Female 17 Ages 40 - 44 Diane Lynch 156 01:12:35 01:29:00
2,000 2km 185 111 Female 16 Ages 35 - 39 Sarah Allen 53 01:12:38 01:29:00
2,000 2km 186 112 Female 16 Ages 50 - 54 Helen Mccarthy 161 01:12:40 02:06:00
2,000 2km 187 113 Female 13 Ages 45 - 49 Claire Mcewan 164 01:13:13 02:05:00
2,000 2km 188 114 Female 14 Ages 45 - 49 Alison Price 181 01:13:14 02:06:00
2,000 2km 189 115 Female 15 Ages 45 - 49 Alexandra Brooke 74 01:13:21 01:24:00
2,000 2km 190 75 Male 7 Ages 60 - 64 Kevin Tate 309 01:13:21 02:35:00
2,000 2km 191 116 Female 18 Ages 40 - 44 Clare Andrews 54 01:13:34 01:30:00
2,000 2km 192 76 Male 13 Ages 40 - 44 Ben Davies 252 01:13:59 02:00:00
2,000 2km 193 117 Female 19 Ages 40 - 44 Liz Mclennan 165 East Grinstead Tri Club 01:14:16 01:30:00
2,000 2km 194 118 Female 20 Ages 40 - 44 Sarah Davey 91 01:14:20 01:30:00
2,000 2km 195 77 Male 14 Ages 50 - 54 William Naylor 293 01:14:21 02:31:00
2,000 2km 196 78 Male 5 Ages 18 - 24 Kaylum Storey 308 01:14:56 01:30:00
2,000 2km 197 119 Female 16 Ages 45 - 49 Aileen Collins 87 01:15:34 02:09:00
2,000 2km 198 120 Female 17 Ages 45 - 49 Caroline Carter 79 01:15:52 01:33:00
2,000 2km 199 121 Female 21 Ages 40 - 44 Julie Keane 142 01:15:53 01:33:00
2,000 2km 200 79 Male 14 Ages 40 - 44 Andrew Moody 290 01:16:14 01:31:00
2,000 2km 201 122 Female 17 Ages 35 - 39 Kirsty Moody 169 01:16:18 01:31:00
2,000 2km 202 123 Female 22 Ages 40 - 44 Hannah Rushton 190 01:16:19 02:09:00
2,000 2km 203 124 Female 18 Ages 35 - 39 Nichola Mccloud 162 01:16:34 01:28:00
2,000 2km 204 125 Female 19 Ages 35 - 39 Daisy Overton 173 vegan runners uk 01:16:45 01:35:00
2,000 2km 205 126 Female 18 Ages 45 - 49 Dawn Smith 203 01:16:49 01:28:00
2,000 2km 206 127 Female 16 Ages 55 - 59 Linda Doe 95 01:17:06 01:37:00
2,000 2km 207 128 Female 17 Ages 50 - 54 Jeanette Threadgold 210 01:18:05 01:28:00
2,000 2km 208 80 Male 4 Ages 30 - 34 Gwynne Griffiths 269 01:21:40 02:39:00
2,000 2km 209 129 Female 18 Ages 50 - 54 Lisa Fretwell 107 01:21:52 02:15:00
2,000 2km 210 130 Female 13 Ages 60 - 64 Susan Green 115 01:22:21 01:38:00
2,000 2km 211 131 Female 20 Ages 35 - 39 Leigh Pick 179 Stilton Struders 01:22:24 01:38:00
2,000 2km 212 132 Female 19 Ages 50 - 54 Jo Van Landeghem 215 01:23:32 01:41:00
2,000 2km 213 133 Female 14 Ages 60 - 64 Julie Christie 83 NAD 01:24:06 01:40:00
2,000 2km 214 134 Female 19 Ages 45 - 49 Helen Smith 202 01:24:36 01:39:00
2,000 2km 215 135 Female 20 Ages 45 - 49 Lara Peach 175 01:24:38 01:39:00
2,000 2km 216 136 Female 2 Ages 30 - 34 Tiffany Webster 224 01:25:25 01:36:00
2,000 2km 217 81 Male 15 Ages 40 - 44 Steven Clay 247 01:25:25 01:36:00
2,000 2km 218 137 Female 21 Ages 45 - 49 Sarah Banning 56 Netherton 01:26:25 02:14:00
2,000 2km 219 138 Female 22 Ages 45 - 49 Elizabeth Waight 217 01:26:31 02:17:00
2,000 2km 220 139 Female 3 Ages 30 - 34 Amanda Bradshaw 69 01:26:44 02:20:00
2,000 2km 221 140 Female 23 Ages 45 - 49 Angela Soames 204 Bluetits 01:27:05 01:41:00
2,000 2km 222 141 Female 20 Ages 50 - 54 Clare Hill 130 01:27:21 01:38:00
2,000 2km 223 82 Male 4 Under 18 Luke Davis 254 01:27:30 01:40:00
2,000 2km 224 142 Female 24 Ages 45 - 49 Julie Davis 92 01:27:31 01:40:00
2,000 2km 225 143 Female 25 Ages 45 - 49 Kerry Williams 225 01:28:02 02:14:00
2,000 2km 226 144 Female 21 Ages 50 - 54 Jude Habib 120 01:29:48 02:25:00
2,000 2km 227 145 Female 22 Ages 50 - 54 Charlotte Simmonds 197 01:31:35 02:48:00
2,000 2km 228 146 Female 26 Ages 45 - 49 Hannah Hall 122 01:32:39 02:19:00
2,000 2km 229 147 Female 27 Ages 45 - 49 Nicola Bramley-Howell 70 01:33:32 01:44:00
2,000 2km 230 148 Female 28 Ages 45 - 49 Fiona Lovell 154 01:38:11 02:55:00
2,000 2km 231 149 Female 4 Ages 30 - 34 Elizabeth Aspland 55 01:38:23 02:29:00
2,000 2km 232 83 Male 5 Ages 30 - 34 Jonathan Aspland 234 01:38:25 02:29:00
2,000 2km 233 150 Female 5 Ages 30 - 34 Rachel Dickinson 94 01:40:39 02:32:00
2,000 2km 234 151 Female 29 Ages 45 - 49 Laura Grist 119 01:56:18 02:51:00
2,000 2km 235 152 Female 30 Ages 45 - 49 Sarah Randall 183 02:04:39 03:00:00
4,000 4km 1 1 Female 1 Ages 40 - 44 Susan Evans 394 Biggleswade Swimming Club 01:01:48 01:01:00
4,000 4km 2 2 Female 1 Ages 18 - 24 Eleanor Mason 446 City of Cambridge Swimming Club 01:02:27 01:02:00
4,000 4km 3 3 Female 1 Under 18 Lizzy Crudgington 384 Southend on sea sc 01:02:31 01:02:00
4,000 4km 4 1 Male 1 Ages 40 - 44 Ian Ray 608 01:02:35 01:02:00
4,000 4km 5 2 Male 1 Ages 30 - 34 Allan Mcroberts 590 Tri Anglia 01:03:24 01:03:00
4,000 4km 6 3 Male 1 Ages 60 - 64 Ian Wood 653 01:03:30 01:03:00
4,000 4km 7 4 Male 2 Ages 60 - 64 John Thompson 635 01:04:02 01:03:00
4,000 4km 8 5 Male 1 Ages 35 - 39 Paul Rowland 611 WVTri 01:04:03 01:04:00
4,000 4km 9 6 Male 1 Ages 18 - 24 Patrick Stone 626 Leicester Tri Club 01:05:22 01:05:00
4,000 4km 10 7 Male 2 Ages 40 - 44 Martin Lander 587 01:06:02 01:05:00
4,000 4km 11 4 Female 1 Ages 45 - 49 Sara Hindry 414 Biggleswade Swimming Club 01:06:14 01:06:00
4,000 4km 12 8 Male 2 Ages 30 - 34 Neil Tandy 629 01:07:01 01:06:00
4,000 4km 13 9 Male 1 Ages 50 - 54 Richard Jefferies 578 Riot Racing Club 01:07:13 01:07:00
4,000 4km 14 10 Male 1 Ages 45 - 49 Gareth Walker 642 01:07:31 01:07:00
4,000 4km 15 11 Male 2 Ages 35 - 39 Jamie Sillett 615 01:07:36 01:07:00
4,000 4km 16 5 Female 1 Ages 60 - 64 Carol Trower 487 01:07:46 01:07:00
4,000 4km 17 12 Male 1 Ages 25 - 29 James Abbott 505 Deepings Swimming Club 01:09:06 01:08:00
4,000 4km 18 13 Male 3 Ages 30 - 34 Manish Hiran 568 Belvoir Tri Club 01:09:16 01:09:00
4,000 4km 19 14 Male 2 Ages 50 - 54 Andrew Clarke 528 01:09:36 01:09:00
4,000 4km 20 15 Male 3 Ages 60 - 64 Stuart Trower 638 01:09:42 01:09:00
4,000 4km 21 6 Female 1 Ages 30 - 34 Juliette Rampley 460 Long Eaton SC Masters 01:09:51 01:09:00
4,000 4km 22 16 Male 1 Ages 55 - 59 John Batchelor 511 BRJ Run and Tri 01:09:55 01:09:00
4,000 4km 23 17 Male 2 Ages 25 - 29 Thomas Rich 604 Evolve 01:11:06 01:10:00
4,000 4km 24 18 Male 3 Ages 35 - 39 Graeme Evans 545 01:11:07 01:11:00
4,000 4km 25 19 Male 2 Ages 45 - 49 Andrew Peakman 596 Edinburgh Triathletes 01:11:16 01:11:00
4,000 4km 26 20 Male 4 Ages 60 - 64 Martin Etchells 544 01:11:47 01:11:00
4,000 4km 27 21 Male 3 Ages 50 - 54 Dave Bates 512 01:11:49 01:11:00
4,000 4km 28 7 Female 1 Ages 50 - 54 Louise Jarvis 423 Biggleswade Swimming Club 01:11:59 01:11:00
4,000 4km 29 22 Male 4 Ages 35 - 39 Ewan Barron 509 01:12:45 01:12:00
4,000 4km 30 23 Male 2 Ages 55 - 59 David Blanchard 517 01:13:11 01:13:00
4,000 4km 31 24 Male 4 Ages 30 - 34 Mark White 647 01:13:13 01:13:00
4,000 4km 32 25 Male 5 Ages 30 - 34 Tom Wilson 652 01:13:33 01:13:00
4,000 4km 33 26 Male 3 Ages 45 - 49 Simon Overing 595 01:13:42 01:13:00
4,000 4km 34 8 Female 2 Ages 45 - 49 Maxine Lane 437 01:13:57 01:13:00
4,000 4km 35 27 Male 5 Ages 60 - 64 Barry Norwood 594 01:13:59 01:13:00
4,000 4km 36 9 Female 1 Ages 25 - 29 Naomi Macphail 445 Team Trident 01:14:05 01:14:00
4,000 4km 37 28 Male 6 Ages 30 - 34 Aneez Mohamed 591 01:14:06 01:14:00
4,000 4km 38 29 Male 6 Ages 60 - 64 Roger Smith 619 01:14:38 01:14:00
4,000 4km 39 10 Female 2 Ages 40 - 44 Renee Wright 502 Leicester masters swimming club 01:14:45 01:14:00
4,000 4km 40 11 Female 2 Ages 60 - 64 Valerie Cummings 386 BRJ Run and Tri 01:15:02 01:14:00
4,000 4km 41 30 Male 4 Ages 45 - 49 Daniel Richardson 606 Rabbies Raiders 01:15:05 01:15:00
4,000 4km 42 31 Male 3 Ages 40 - 44 Nathaniel Walker 643 01:15:07 01:15:00
4,000 4km 43 32 Male 7 Ages 60 - 64 Roger Blackmore 515 BRJ Huntingdon 01:15:19 01:15:00
4,000 4km 44 33 Male 1 Ages 70 - 74 Martin Sarsfield 612 Long Eaton swimming club. 01:15:28 01:15:00
4,000 4km 45 12 Female 2 Ages 50 - 54 Alice Barnes 363 Meridian Triathlon Club 01:15:34 01:15:00
4,000 4km 46 34 Male 7 Ages 30 - 34 Jon Banks 507 01:15:59 01:15:00
4,000 4km 47 35 Male 4 Ages 40 - 44 Slawomir Szuba 628 01:16:00
4,000 4km 48 36 Male 8 Ages 30 - 34 Benedict Goold 555 01:16:09 01:16:00
4,000 4km 49 37 Male 5 Ages 45 - 49 Chris Baker 666 01:16:12 01:16:00
4,000 4km 50 38 Male 4 Ages 50 - 54 Darren Thoirs 633 WVTri 01:16:16 01:16:00
4,000 4km 51 13 Female 1 Ages 55 - 59 Constance Gilbert Gilbert 400 01:16:18 01:16:00
4,000 4km 52 14 Female 3 Ages 60 - 64 Elspeth Goodspeed 402 Meridian Triathlon Club 01:16:34 01:16:00
4,000 4km 53 15 Female 2 Ages 25 - 29 Amber Coughlan 381 Camp Hill Edwardians 01:16:58 01:16:00
4,000 4km 54 16 Female 2 Under 18 Tyler Kelly-Cooper 427 Camp Hill Edwardians 01:16:58 01:16:00
4,000 4km 55 39 Male 5 Ages 35 - 39 Matthew Quibell 602 Bassetlaw Triathlon Club 01:17:06 01:17:00
4,000 4km 56 40 Male 5 Ages 50 - 54 David Scott 673 01:17:23 01:17:00
4,000 4km 57 41 Male 6 Ages 45 - 49 Robert Spashett 622 Belvoir Tri Club 01:17:24 01:17:00
4,000 4km 58 42 Male 1 Under 18 James Rowe 610 01:17:39 01:17:00
4,000 4km 59 43 Male 5 Ages 40 - 44 Stuart Turner 639 01:17:47 01:17:00
4,000 4km 60 44 Male 1 Ages 65 - 69 Tony Baskeyfield 510 Deeping Swim Club 01:17:50 01:17:00
4,000 4km 61 17 Female 3 Ages 50 - 54 Tracy Carr 375 01:17:55 01:17:00
4,000 4km 62 18 Female 3 Ages 45 - 49 Sarah Terry 668 01:18:01 01:17:00
4,000 4km 63 45 Male 6 Ages 35 - 39 Chris Doidge 541 01:18:07 01:18:00
4,000 4km 64 19 Female 2 Ages 30 - 34 Ella Mccahill 448 Long Eaton Sharks 01:18:09 01:18:00
4,000 4km 65 20 Female 1 Ages 35 - 39 Jane Stalker 477 01:18:12 01:18:00
4,000 4km 66 46 Male 9 Ages 30 - 34 Tom Butt 675 01:18:16 01:18:00
4,000 4km 67 21 Female 4 Ages 45 - 49 Jennifer Moore 450 Trafford masters 01:18:18 01:18:00
4,000 4km 68 47 Male 3 Ages 25 - 29 Andrew Farrington 546 01:18:23 01:18:00
4,000 4km 69 48 Male 6 Ages 40 - 44 Ian Tennant 631 01:18:35 01:18:00
4,000 4km 70 49 Male 10 Ages 30 - 34 Tom Griffiths 558 01:18:41 01:18:00
4,000 4km 71 50 Male 6 Ages 50 - 54 Nick Powis 600 01:19:02 01:18:00
4,000 4km 72 51 Male 7 Ages 45 - 49 Paul Davies 538 01:19:24 01:19:00
4,000 4km 73 52 Male 8 Ages 45 - 49 Gordon Kilroy 584 01:19:48 01:19:00
4,000 4km 74 22 Female 4 Ages 60 - 64 Kate Bulbeck 371 GreenlightPT 01:19:49 01:19:00
4,000 4km 75 53 Male 3 Ages 55 - 59 Mark Blackmore 516 01:19:51 01:19:00
4,000 4km 76 23 Female 3 Ages 30 - 34 Sarah Hara 408 01:20:18 01:20:00
4,000 4km 77 54 Male 7 Ages 35 - 39 Rob Jones 669 01:20:20 01:20:00
4,000 4km 78 24 Female 4 Ages 30 - 34 Jessica Verrall 490 East London Triathletes 01:20:27 01:20:00
4,000 4km 79 55 Male 4 Ages 25 - 29 Robert Schwarz 613 01:20:32 01:20:00
4,000 4km 80 56 Male 9 Ages 45 - 49 Chris Richardson 607 01:20:39 01:20:00
4,000 4km 81 25 Female 4 Ages 50 - 54 Nikki Balding 360 Tri Harman 01:20:41 01:20:00
4,000 4km 82 26 Female 2 Ages 55 - 59 Vicki Smith 473 01:21:00 01:20:00
4,000 4km 83 57 Male 7 Ages 40 - 44 Paul Jackson 577 Grimsby triathlon club 01:21:00 01:20:00
4,000 4km 84 58 Male 4 Ages 55 - 59 Michael Dobson 540 01:21:10 01:21:00
4,000 4km 85 59 Male 10 Ages 45 - 49 Jean-Sebastien Need Dob 778 01:21:13 01:21:00
4,000 4km 86 27 Female 5 Ages 50 - 54 Polly Lunn 665 01:21:23 01:21:00
4,000 4km 87 60 Male 5 Ages 55 - 59 David Waters 644 newmarket cycling & triathlon club 01:21:28 01:21:00
4,000 4km 88 61 Male 11 Ages 45 - 49 Ross Faulkner 547 01:21:30 01:21:00
4,000 4km 89 62 Male 7 Ages 50 - 54 Nick Clarke 674 01:21:49 01:21:00
4,000 4km 90 63 Male 2 Ages 65 - 69 Leslie Piggott 599 01:21:51 01:21:00
4,000 4km 91 64 Male 11 Ages 30 - 34 Alex Daffern 536 01:22:01 01:21:00
4,000 4km 92 28 Female 5 Ages 45 - 49 Ashley Blake 368 01:22:04 01:21:00
4,000 4km 93 65 Male 8 Ages 35 - 39 Paul Richardson 605 01:22:44 01:22:00
4,000 4km 94 29 Female 2 Ages 18 - 24 Ellie Fretwell 398 01:22:54 01:22:00
4,000 4km 95 66 Male 8 Ages 50 - 54 Robin Beardmore 514 01:23:03 01:22:00
4,000 4km 96 67 Male 2 Ages 70 - 74 Martin Shewry 614 Insp2tri 01:23:13 01:23:00
4,000 4km 97 68 Male 3 Ages 65 - 69 Keith Esdon 739 Leighton Buzzard Tri Club 01:23:15 01:23:00
4,000 4km 98 69 Male 6 Ages 55 - 59 Richard Crawford 533 NOWCA 01:23:16 01:23:00
4,000 4km 99 70 Male 9 Ages 50 - 54 Will Price Need Dob 660 01:23:25 01:23:00
4,000 4km 100 30 Female 6 Ages 50 - 54 Sally Taylor 486 Harrogate Triathlon Club 01:23:30 01:23:00
4,000 4km 101 31 Female 3 Ages 55 - 59 Alice Grant 405 Deepings Swimming Club 01:23:32 01:23:00
4,000 4km 102 71 Male 8 Ages 60 - 64 Steve Hunt 574 Wolds Breakfast Club 01:23:40 01:23:00
4,000 4km 103 72 Male 12 Ages 45 - 49 Alex Stead 663 Bronwyn Higgins 01:24:19 01:24:00
4,000 4km 104 73 Male 10 Ages 50 - 54 Simon Pepper 597 01:24:23 01:24:00
4,000 4km 105 74 Male 11 Ages 50 - 54 Brian Henderson 566 Tri Anglia 01:24:53 01:24:00
4,000 4km 106 32 Female 4 Ages 55 - 59 Helen Atherton 358 City of Coventry Masters 01:24:56 01:24:00
4,000 4km 107 75 Male 12 Ages 50 - 54 David Hayward 565 01:25:08 01:25:00
4,000 4km 108 76 Male 13 Ages 45 - 49 Christopher Whitfield 648 01:25:13 01:25:00
4,000 4km 109 77 Male 12 Ages 30 - 34 Chris Stanley 625 01:25:23 01:25:00
4,000 4km 110 78 Male 13 Ages 50 - 54 Ian Folkard 549 Tri Anglia 01:25:55 01:25:00
4,000 4km 111 79 Male 7 Ages 55 - 59 Neill Case 525 01:25:57 01:25:00
4,000 4km 112 80 Male 14 Ages 50 - 54 John Moore 659 01:26:24 01:26:00
4,000 4km 113 33 Female 3 Ages 18 - 24 Amber Meakins 449 01:26:26 01:26:00
4,000 4km 114 34 Female 6 Ages 45 - 49 Heide Kloeppel 434 01:26:29 01:26:00
4,000 4km 115 35 Female 5 Ages 55 - 59 Susan Rich 463 Evolve 01:26:46 01:26:00
4,000 4km 116 36 Female 5 Ages 30 - 34 Loren Wright 501 01:26:49 01:26:00
4,000 4km 117 37 Female 3 Ages 25 - 29 Rebecca Auster 359 01:26:50 01:26:00
4,000 4km 118 81 Male 13 Ages 30 - 34 Ed Hadcock 560 Sexy Walrus 01:26:51 01:26:00
4,000 4km 119 38 Female 3 Ages 40 - 44 Liz Brown 370 01:26:53 01:26:00
4,000 4km 120 82 Male 15 Ages 50 - 54 Wayne Smith 617 01:26:58 01:26:00
4,000 4km 121 39 Female 7 Ages 45 - 49 Jenny Skerritt 470 01:27:21 01:27:00
4,000 4km 122 40 Female 8 Ages 45 - 49 Helen Cooper 380 RAF Tri 01:27:34 01:27:00
4,000 4km 123 83 Male 14 Ages 45 - 49 Will Kinnear 585 01:27:34 01:27:00
4,000 4km 124 41 Female 2 Ages 35 - 39 Katharine Baxter 365 Wellingborough and District AC 01:27:36 01:27:00
4,000 4km 125 42 Female 6 Ages 55 - 59 Ann Tryssesoone 488 Freedom Tri 01:27:54 01:27:00
4,000 4km 126 84 Male 9 Ages 60 - 64 Stephen Jones 580 01:28:04 01:27:00
4,000 4km 127 43 Female 9 Ages 45 - 49 Paula Stretton 479 01:28:25 01:28:00
4,000 4km 128 44 Female 3 Ages 35 - 39 Vikki Sharpe 469 01:29:01 01:28:00
4,000 4km 129 45 Female 10 Ages 45 - 49 Sarah Halford 406 Long Eaton swimming club. 01:29:18 01:29:00
4,000 4km 130 85 Male 9 Ages 35 - 39 Egidijus Perednis 598 01:29:24 01:29:00
4,000 4km 131 86 Male 10 Ages 60 - 64 Keith Williams 650 Hereford Triathlon 01:29:25 01:29:00
4,000 4km 132 46 Female 11 Ages 45 - 49 Lorna Clark 377 01:29:29 01:29:00
4,000 4km 133 87 Male 11 Ages 60 - 64 Robert Hopper 570 01:29:57 01:29:00
4,000 4km 134 47 Female 7 Ages 55 - 59 Helen Soiris 475 Chesterfield Tri 01:30:00 01:29:00
4,000 4km 135 48 Female 4 Ages 25 - 29 Helen Bickerstaff 367 1485 tri club 01:30:01 01:29:00
4,000 4km 136 88 Male 16 Ages 50 - 54 Nelson Hunter 575 Cleethorpes Tri Club 01:30:16 01:30:00
4,000 4km 137 89 Male 8 Ages 55 - 59 Chris Smith 620 Freedom Tri 01:30:34 01:30:00
4,000 4km 138 90 Male 17 Ages 50 - 54 Steve Groves 559 Chesterfield Tri 01:30:39 01:30:00
4,000 4km 139 91 Male 15 Ages 45 - 49 Simon Crosswaite 534 01:30:51
4,000 4km 140 92 Male 9 Ages 55 - 59 Paul Smiles 616 01:30:57 01:30:00
4,000 4km 141 49 Female 4 Ages 35 - 39 Christy Lodge 440 01:31:12 01:31:00
4,000 4km 142 50 Female 7 Ages 50 - 54 Louise Comfort 378 Belvoir Tri Club 01:31:17 01:31:00
4,000 4km 143 93 Male 10 Ages 55 - 59 Ray Thompson 634 Welland Valley Tri Club 01:31:24 01:31:00
4,000 4km 144 51 Female 5 Ages 35 - 39 Ruth Hall 407 01:31:29 01:31:00
4,000 4km 145 52 Female 8 Ages 50 - 54 Tracey Brazier 369 01:31:33 01:31:00
4,000 4km 146 53 Female 6 Ages 35 - 39 Natasha Maynard 447 Willesden Triathlon Club 01:31:38 01:31:00
4,000 4km 147 54 Female 6 Ages 30 - 34 Lucy Bell 366 Grimsby triathlon club 01:31:44 01:31:00
4,000 4km 148 55 Female 4 Ages 40 - 44 Helen Allen 356 Long Eaton Triathlon Club 01:31:45 01:31:00
4,000 4km 149 56 Female 12 Ages 45 - 49 Tammy Goddard 401 01:31:51 01:31:00
4,000 4km 150 94 Male 14 Ages 30 - 34 James Thomas 313 01:31:53 01:31:00
4,000 4km 151 95 Male 16 Ages 45 - 49 Cary Hadfield 561 01:32:01 01:31:00
4,000 4km 152 57 Female 9 Ages 50 - 54 Sharron Wilson 498 01:32:03 01:31:00
4,000 4km 153 96 Male 18 Ages 50 - 54 James House 572 01:32:11 01:32:00
4,000 4km 154 58 Female 10 Ages 50 - 54 Joanne Highfield 411 Lincoln Vulcans 01:32:28 01:32:00
4,000 4km 155 59 Female 11 Ages 50 - 54 Emma Hindley 413 01:32:31 01:32:00
4,000 4km 156 97 Male 19 Ages 50 - 54 Si Spence 623 Tri-Harman 01:32:38 01:32:00
4,000 4km 157 60 Female 13 Ages 45 - 49 Katherine Walton 493 01:32:46 01:32:00
4,000 4km 158 61 Female 8 Ages 55 - 59 Jo Lockhart 661 01:33:10 01:33:00
4,000 4km 159 62 Female 12 Ages 50 - 54 Linda Rands 461 100% Tri 01:33:24 01:33:00
4,000 4km 160 63 Female 4 Ages 18 - 24 Lydia Gough 403 Oadby & Wigston Swimming Club 01:33:32 01:33:00
4,000 4km 161 64 Female 14 Ages 45 - 49 Karen Burton 372 Camp Hill Edwardians 01:33:41 01:33:00
4,000 4km 162 65 Female 15 Ages 45 - 49 Cathy Scott 467 Coventry Masters 01:33:58 01:33:00
4,000 4km 163 66 Female 9 Ages 55 - 59 Sue Pyman 459 01:33:59 01:33:00
4,000 4km 164 67 Female 7 Ages 35 - 39 Sarah Cumberpatch 385 01:34:03 01:33:00
4,000 4km 165 98 Male 17 Ages 45 - 49 Mark Lacy 586 Freedom Tri 01:34:07 01:34:00
4,000 4km 166 99 Male 11 Ages 55 - 59 Steve Palfreman 667 01:34:25 01:34:00
4,000 4km 167 100 Male 10 Ages 35 - 39 Tony Stratton 627 01:34:28 01:34:00
4,000 4km 168 68 Female 5 Ages 60 - 64 Kate Robathan 465 01:34:30 01:34:00
4,000 4km 169 101 Male 8 Ages 40 - 44 James Edmondson 543 01:34:35 01:34:00
4,000 4km 170 102 Male 15 Ages 30 - 34 Louis Moore 592 01:34:52 01:34:00
4,000 4km 171 103 Male 9 Ages 40 - 44 Chris Howe 573 01:35:11 01:35:00
4,000 4km 172 104 Male 11 Ages 35 - 39 Kuba Cioczek 527 01:35:19 01:35:00
4,000 4km 173 69 Female 13 Ages 50 - 54 Jo Aatkar 351 01:35:37 01:35:00
4,000 4km 174 70 Female 8 Ages 35 - 39 Jo Slota-Newson 472 Walden TRI 01:35:44 01:35:00
4,000 4km 175 71 Female 14 Ages 50 - 54 Sal Philpott 458 01:35:54 01:35:00
4,000 4km 176 72 Female 15 Ages 50 - 54 Karen Kenyon 430 01:36:07 01:36:00
4,000 4km 177 105 Male 12 Ages 55 - 59 David Fitzpatrick 548 01:36:09 01:36:00
4,000 4km 178 106 Male 12 Ages 35 - 39 Fraser Geddes 552 01:36:36 01:36:00
4,000 4km 179 73 Female 16 Ages 50 - 54 Helen Graham 404 01:36:37 01:36:00
4,000 4km 180 74 Female 10 Ages 55 - 59 Sophia Sladden 471 01:36:52 01:36:00
4,000 4km 181 107 Male 10 Ages 40 - 44 Nick Currie 535 01:37:25 01:37:00
4,000 4km 182 75 Female 17 Ages 50 - 54 Jessica Walsh-Banks 492 01:37:27 01:37:00
4,000 4km 183 76 Female 18 Ages 50 - 54 Rachel Devaney 388 Grimsby triathlon club 01:37:36 01:37:00
4,000 4km 184 77 Female 11 Ages 55 - 59 Janet Worrell 500 01:38:00 01:37:00
4,000 4km 185 108 Male 4 Ages 65 - 69 Stephen Presland 601 Fenland Clarion 01:38:31 01:38:00
4,000 4km 186 78 Female 16 Ages 45 - 49 Rona Mackenzie 443 01:38:36 01:38:00
4,000 4km 187 79 Female 5 Ages 40 - 44 Farah Korimbocus 435 01:38:52 01:38:00
4,000 4km 188 109 Male 18 Ages 45 - 49 Graeme Brannen 519 Coventry Triathlon 01:38:56 01:38:00
4,000 4km 189 80 Female 12 Ages 55 - 59 Sally Taylor 484 01:38:59 01:38:00
4,000 4km 190 81 Female 5 Ages 25 - 29 Roseanna Taylor 483 Tunbridge wells triathlon club 01:38:59 01:38:00
4,000 4km 191 82 Female 13 Ages 55 - 59 Karen Wood 499 Kings Lynn Triathlon Club 01:39:21 01:39:00
4,000 4km 192 110 Male 19 Ages 45 - 49 Jason Mullings 593 01:40:04 01:39:00
4,000 4km 193 111 Male 11 Ages 40 - 44 George Harris 564 01:40:09 01:40:00
4,000 4km 194 83 Female 17 Ages 45 - 49 Johanna Riches 464 01:40:22 01:40:00
4,000 4km 195 84 Female 6 Ages 40 - 44 Anna Seaman 468 01:40:39 01:40:00
4,000 4km 196 85 Female 18 Ages 45 - 49 Clare Forknell 396 01:40:54 01:40:00
4,000 4km 197 112 Male 13 Ages 35 - 39 James Bream 520 Stafford Tri Club 01:41:01 01:40:00
4,000 4km 198 86 Female 19 Ages 50 - 54 Suzanne Stubbings 480 T3 Tadcaster Triathlon Club 01:41:05 01:40:00
4,000 4km 199 113 Male 14 Ages 35 - 39 Matthew Southerington 621 01:41:08 01:41:00
4,000 4km 200 114 Male 20 Ages 50 - 54 Paul Smith 618 Belvoir Tri Club 01:41:12 01:41:00
4,000 4km 201 87 Female 7 Ages 40 - 44 Lynsey Dunne 390 01:41:34 01:41:00
4,000 4km 202 115 Male 20 Ages 45 - 49 Nick Brown 522 01:42:03 01:41:00
4,000 4km 203 88 Female 6 Ages 60 - 64 Gillian Green 658 01:43:05 01:42:00
4,000 4km 204 89 Female 9 Ages 35 - 39 Jessica Wynn-Werninck 503 01:43:08 01:43:00
4,000 4km 205 90 Female 7 Ages 60 - 64 Julie Taylor 485 01:43:35 01:43:00
4,000 4km 206 91 Female 19 Ages 45 - 49 Sarah Morley 451 Barrow Runners 01:43:36 01:43:00
4,000 4km 207 116 Male 5 Ages 65 - 69 Alasdair Wills 651 Lincoln Tri 01:43:40 01:43:00
4,000 4km 208 92 Female 20 Ages 45 - 49 Rebecca Lord 441 01:44:05 01:44:00
4,000 4km 209 117 Male 13 Ages 55 - 59 Andy Tibbals 636 Harrogate Triathlon Club 01:44:37 01:44:00
4,000 4km 210 118 Male 12 Ages 40 - 44 Andras Horvath 571 01:45:10 01:45:00
4,000 4km 211 93 Female 14 Ages 55 - 59 Claire Jenkinson 424 01:45:17 01:45:00
4,000 4km 212 119 Male 13 Ages 40 - 44 John Hallissey 562 01:45:31 01:45:00
4,000 4km 213 120 Male 14 Ages 55 - 59 Gary Freeman 550 01:46:42 01:46:00
4,000 4km 214 94 Female 8 Ages 60 - 64 Susan Smith 474 01:47:17 01:47:00
4,000 4km 215 95 Female 20 Ages 50 - 54 Isla Kuhn 436 01:47:42 01:47:00
4,000 4km 216 96 Female 8 Ages 40 - 44 Anna Jones 425 01:47:48 01:47:00
4,000 4km 217 97 Female 9 Ages 40 - 44 Natalie Rennie 672 01:47:51 01:47:00
4,000 4km 218 121 Male 6 Ages 65 - 69 Bob Batten 513 01:47:53 01:47:00
4,000 4km 219 98 Female 21 Ages 45 - 49 Zoe Wyrko 504 01:47:59 01:47:00
4,000 4km 220 99 Female 15 Ages 55 - 59 Rowena Homan 416 Wansford Walrus 01:48:38 01:48:00
4,000 4km 221 100 Female 10 Ages 35 - 39 Harriet Allen 355 01:48:55 01:48:00
4,000 4km 222 101 Female 7 Ages 30 - 34 Mary Tait 482 01:48:56 01:48:00
4,000 4km 223 122 Male 15 Ages 35 - 39 Jonathan Collins 529 01:49:18 01:49:00
4,000 4km 224 102 Female 21 Ages 50 - 54 Sarah Barkham 362 01:49:40 01:49:00
4,000 4km 225 123 Male 15 Ages 55 - 59 Neil Rackham 603 01:50:16 01:50:00
4,000 4km 226 124 Male 21 Ages 45 - 49 Peter Mchenry 589 01:50:23 01:50:00
4,000 4km 227 125 Male 22 Ages 45 - 49 George Holland 569 01:50:53 01:50:00
4,000 4km 228 103 Female 16 Ages 55 - 59 Christine Mackey 444 01:51:17 01:51:00
4,000 4km 229 126 Male 23 Ages 45 - 49 Jon Granshaw 556 MK OWS 01:51:31 01:51:00
4,000 4km 230 104 Female 22 Ages 50 - 54 Jacqueline Kersey 432 01:52:18 01:52:00
4,000 4km 231 105 Female 17 Ages 55 - 59 Linda Rowe 466 01:52:27 01:52:00
4,000 4km 232 106 Female 22 Ages 45 - 49 Kirsty Jones 426 01:52:38 01:52:00
4,000 4km 233 107 Female 23 Ages 50 - 54 Kathryn Nethercott 453 01:53:16 01:53:00
4,000 4km 234 108 Female 11 Ages 35 - 39 Alexandra Damazer 387 01:53:29 01:53:00
4,000 4km 235 109 Female 6 Ages 25 - 29 Vivian Lee 438 01:54:23 01:54:00
4,000 4km 236 110 Female 18 Ages 55 - 59 Claire Nash 452 01:55:03 01:54:00
4,000 4km 237 111 Female 24 Ages 50 - 54 Louise Hill 412 01:55:06 01:54:00
4,000 4km 238 127 Male 16 Ages 55 - 59 Simon Butdock 523 01:55:37 01:55:00
4,000 4km 239 128 Male 21 Ages 50 - 54 Chris Waghorn 640 01:55:37 01:55:00
4,000 4km 240 112 Female 10 Ages 40 - 44 Rebecca Cavill 376 01:56:26 01:56:00
4,000 4km 241 129 Male 22 Ages 50 - 54 Jonathan Hand 563 01:57:18 01:57:00
4,000 4km 242 113 Female 11 Ages 40 - 44 Zoe Ward 495 100% Tri 01:57:19 01:57:00
4,000 4km 243 114 Female 23 Ages 45 - 49 Charlotte Canlin 374 Swim fit cotgrave 01:57:36 01:57:00
4,000 4km 244 115 Female 24 Ages 45 - 49 Rachel Wade 491 01:57:39 01:57:00
4,000 4km 245 116 Female 12 Ages 40 - 44 Joanna Wignall 496 01:57:51 01:57:00
4,000 4km 246 117 Female 12 Ages 35 - 39 Samantha Adams 353 01:58:00 01:57:00
4,000 4km 247 130 Male 16 Ages 30 - 34 Matthew Gray 557 01:58:27 01:58:00
4,000 4km 248 118 Female 25 Ages 45 - 49 Sarah-Jane Macdonald 442 Three Counties Running Club 01:58:51 01:58:00
4,000 4km 249 131 Male 3 Ages 70 - 74 Charles Davies 537 01:59:09 01:59:00
4,000 4km 250 132 Male 17 Ages 55 - 59 Nick Wales 641 01:59:11 01:59:00
4,000 4km 251 119 Female 13 Ages 40 - 44 Lizzie Gamble 399 01:59:47 01:59:00
4,000 4km 252 120 Female 25 Ages 50 - 54 Fiona Hunter 419 Grimsby triathlon club 02:00:02 01:59:00
4,000 4km 253 133 Male 23 Ages 50 - 54 Paul Tennyson 632 02:00:39 02:00:00
4,000 4km 254 121 Female 14 Ages 40 - 44 Sarah Hull 417 02:03:56 02:03:00
4,000 4km 255 134 Male 17 Ages 30 - 34 Nathan Britten 521 02:06:08 02:06:00
4,000 4km 256 122 Female 8 Ages 30 - 34 Nicola Leng-Russell 439 02:09:11 02:09:00
4,000 4km 257 123 Female 13 Ages 35 - 39 Lindsay Rees 462 02:09:32 02:09:00
4,000 4km 258 124 Female 14 Ages 35 - 39 Frances Foster 397 02:13:41 02:13:00
4,000 4km 259 125 Female 26 Ages 45 - 49 Joanna Espin 393 02:15:54 02:15:00
4,000 4km 260 135 Male 16 Ages 35 - 39 Iain Marshall 588 02:17:02 02:16:00
4,000 4km 261 126 Female 7 Ages 25 - 29 Emily Ward 494 02:18:49 02:18:00
4,000 4km 262 127 Female 19 Ages 55 - 59 Jane Crighton 382 02:22:32 02:22:00
4,000 4km 263 136 Male 14 Ages 40 - 44 William Scott 664 02:25:11 02:25:00
4,000 4km 264 137 Male 17 Ages 35 - 39 Richard Scott 671 02:25:12 02:25:00
4,000 4km 265 128 Female 15 Ages 40 - 44 Melanie Lewis 151 02:25:45 02:25:00
4,000 4km 266 129 Female 27 Ages 45 - 49 Chris Kerry 431 02:27:30 02:27:00
4,000 4km 267 130 Female 28 Ages 45 - 49 Lindsey-Jo Hartshorn 409 02:34:26 02:34:00
4,000 4km 268 138 Male 24 Ages 50 - 54 Stephen Ilett 576 02:57:18 00:01:00
8,000 8km 1 1 Male 1 Ages 30 - 34 Matthew Breckon 731 Crawley Swimming Club 01:51:12 00:55:00
8,000 8km 2 2 Male 1 Ages 25 - 29 William Davies 736 BRJ 02:04:03 01:02:00
8,000 8km 3 1 Female 1 Ages 30 - 34 Emma Gardner 709 02:04:40 00:54:00
8,000 8km 4 3 Male 1 Ages 45 - 49 Simon Marsden 754 Barnet Copthall 02:08:09 01:02:00
8,000 8km 5 4 Male 1 Ages 50 - 54 Phillip Jenkins 749 02:17:02 01:06:00
8,000 8km 6 5 Male 1 Ages 60 - 64 Gordon Baird 729 02:24:58 01:11:00
8,000 8km 7 6 Male 1 Ages 55 - 59 Nick Fowkes 741 Kettering Swimming Club 02:25:56 01:10:00
8,000 8km 8 2 Female 1 Ages 25 - 29 Laura Vuylsteke 727 Swim45 02:26:19 01:11:00
8,000 8km 9 7 Male 1 Ages 35 - 39 Alex Jenkins 748 Camphill Edwardians Swimming Club 02:27:45 01:13:00
8,000 8km 10 3 Female 1 Ages 60 - 64 Jacquie Cooper 706 02:30:20 01:13:00
8,000 8km 11 8 Male 2 Ages 35 - 39 Adam Kiziak 752 02:32:37 01:12:00
8,000 8km 12 9 Male 2 Ages 50 - 54 Justin Mcdermott 756 East London Triathletes 02:34:56 01:14:00
8,000 8km 13 10 Male 1 Ages 40 - 44 Mark Townsend 773 02:35:25 01:12:00
8,000 8km 14 11 Male 3 Ages 50 - 54 Lewis King 751 02:36:04 01:14:00
8,000 8km 15 12 Male 2 Ages 40 - 44 Tim Barry 730 Greenlight 02:38:03 01:17:00
8,000 8km 16 13 Male 2 Ages 45 - 49 Neil Shepherd 768 Deepings Swimming Club 02:38:36 01:17:00
8,000 8km 17 4 Female 1 Ages 35 - 39 Kim Mousley 717 02:38:39 01:17:00
8,000 8km 18 14 Male 3 Ages 35 - 39 James Swift 771 02:38:39 01:19:00
8,000 8km 19 15 Male 3 Ages 45 - 49 James And Bucher 733 02:38:44 01:14:00
8,000 8km 20 16 Male 4 Ages 35 - 39 Ian Hansford 743 100% Tri 02:38:46 01:18:00
8,000 8km 21 5 Female 2 Ages 25 - 29 Victoria Huntingford 421 02:39:15 01:17:00
8,000 8km 22 17 Male 4 Ages 45 - 49 Neil Reid 765 Deeping Swim Club 02:40:47 01:22:00
8,000 8km 23 18 Male 5 Ages 45 - 49 Austen Morgan 757 Chasewater Open Water Swim Club 02:40:47 01:17:00
8,000 8km 24 6 Female 1 Ages 45 - 49 Sarah Lockington 715 02:40:49 01:18:00
8,000 8km 25 7 Female 3 Ages 25 - 29 Rowann Raynor 720 TFN 02:41:28 01:18:00
8,000 8km 26 19 Male 2 Ages 25 - 29 Robert Swinburne 772 02:41:52 01:16:00
8,000 8km 27 8 Female 1 Ages 40 - 44 Verity Allsopp 702 Leighton Buzzard Tri Club 02:42:17 01:18:00
8,000 8km 28 9 Female 2 Ages 30 - 34 Emily Huntingford 420 02:42:48 01:17:00
8,000 8km 29 10 Female 2 Ages 35 - 39 Hannan Hammond 712 Deepings Swimming Club 02:44:54 01:20:00
8,000 8km 30 20 Male 1 Ages 65 - 69 David Clarkstone 735 Daventry Dolphins 02:45:18 01:19:00
8,000 8km 31 11 Female 3 Ages 35 - 39 Rachel Burton 703 WVTri 02:47:07 01:18:00
8,000 8km 32 12 Female 2 Ages 40 - 44 Nancy Reed 721 MMSC 02:47:46 01:21:00
8,000 8km 33 13 Female 3 Ages 40 - 44 Kate Rose 723 02:47:48 01:21:00
8,000 8km 34 21 Male 6 Ages 45 - 49 Adam Boon 780 02:49:46 01:23:00
8,000 8km 35 14 Female 1 Ages 55 - 59 Caroline Sale 725 02:52:02 01:26:00
8,000 8km 36 22 Male 5 Ages 35 - 39 Ben Harrison 332 02:53:07 01:19:00
8,000 8km 37 23 Male 3 Ages 25 - 29 Peter Arnold 728 02:54:57 01:23:00
8,000 8km 38 15 Female 4 Ages 40 - 44 Esther Rousay Wiley 724 02:55:12 01:26:00
8,000 8km 39 24 Male 2 Ages 55 - 59 David Watt 645 02:55:57 01:23:00
8,000 8km 40 25 Male 3 Ages 55 - 59 Peter Catlow 50 02:57:09 01:27:00
8,000 8km 41 16 Female 3 Ages 30 - 34 Naomi Campion 704 02:58:23 01:25:00
8,000 8km 42 26 Male 7 Ages 45 - 49 Bo Mengel Jorgensen 750 Swimyourswim 02:58:44 01:20:00
8,000 8km 43 17 Female 1 Ages 18 - 24 Rosie Allen 701 03:01:36 01:26:00
8,000 8km 44 27 Male 4 Ages 55 - 59 Julian Lloyd 753 03:05:43 01:20:00
8,000 8km 45 28 Male 4 Ages 50 - 54 Simon Osborne 762 Race Hub 03:06:44
8,000 8km 46 29 Male 3 Ages 40 - 44 Craig Stephenson 770 03:10:22 01:26:00
8,000 8km 47 30 Male 2 Ages 60 - 64 Paul Rowan 766 03:13:14 12:00:00
8,000 8km 48 31 Male 8 Ages 45 - 49 Dan Whittaker 776 03:15:44 01:30:00
8,000 8km 49 32 Male 4 Ages 40 - 44 Ben Donovan 738 03:22:49 01:32:00
8,001 8k_4k_dropdown 1 1 Female 1 Ages 45 - 49 Julie Scott 726 City of Cambridge Swimming Club 01:14:46
8,001 8k_4k_dropdown 2 1 Male 1 Ages 25 - 29 Connor James 747 Swim Lakeside 01:26:02
8,001 8k_4k_dropdown 3 2 Male 1 Ages 45 - 49 Jason Scatcherd 767 01:33:48
8,001 8k_4k_dropdown 4 3 Male 1 Ages 70 - 74 Brian Weaver 775 01:33:51
8,001 8k_4k_dropdown 5 2 Female 2 Ages 45 - 49 Mo Pennock 718 "Evolve Endurance 01:34:02
8,001 8k_4k_dropdown 6 4 Male 1 Ages 55 - 59 Ben Alan Inns 745 01:34:16
8,001 8k_4k_dropdown 7 3 Female 1 Ages 40 - 44 Jayne Crellin 707 01:34:31
8,001 8k_4k_dropdown 8 5 Male 2 Ages 55 - 59 Rob Brunswick 732 01:35:56
8,001 8k_4k_dropdown 9 6 Male 2 Ages 45 - 49 Edward Ball 779 01:36:49
8,001 8k_4k_dropdown 10 4 Female 1 Ages 50 - 54 Jackie Colby 705 01:39:05
8,001 8k_4k_dropdown 11 5 Female 2 Ages 40 - 44 Victoria Critchlow 708 01:40:13
8,001 8k_4k_dropdown 12 7 Male 3 Ages 55 - 59 Howard Davis 737 FEEDOM TRI 01:40:35
8,001 8k_4k_dropdown 13 8 Male 1 Ages 40 - 44 Darren Price 764 01:44:45
8,001 8k_4k_dropdown 14 6 Female 2 Ages 50 - 54 Carolyn Giles 710 01:50:28
8,001 8k_4k_dropdown 15 9 Male 1 Ages 50 - 54 Andy Murfitt 758 Ely Tri Club 02:47:54
8,001 8k_4k_dropdown 16 7 Female 3 Ages 45 - 49 Claire Goodson 711 Huddersfield Triathlon club 02:50:43
8,001 8k_4k_dropdown 17 10 Male 1 Ages 30 - 34 Ross Murray 759 02:54:31
EventId EventDescr Overall Pos Gender Pos Gender Categ Pos Category First name Last name Race num Club Time Split time (8k)

Swim Rutland 2022 500m results

EventId Overall Pos Gender Pos Gender Categ Pos Category First name Last name Race num Club Time
500 1 1 Male 1 Under 18 Joseph Greaves 33 Corby Amateur Swimming Club 00:07:32
500 2 1 Female 1 Under 18 Evie Coburn 8 Melton Mowbray Swimming Club 00:08:01
500 3 2 Female 2 Under 18 Lauren Calvert 4 Team Luton 00:08:13
500 4 3 Female 1 Ages 30 - 34 Claire Bracken 40 00:09:17
500 5 4 Female 3 Under 18 Eleanor Lord 17 00:10:56
500 6 5 Female 1 Ages 55 - 59 Caroline Wills 497 Lincoln Tri 00:12:11
500 7 2 Male 1 Ages 35 - 39 Dan Taberner 36 00:12:34
500 8 6 Female 1 Ages 50 - 54 Elaine Everitt-Smith 9 Netherton open water swimming 00:12:39
500 9 3 Male 1 Ages 18 - 24 William Stephens 35 00:12:52
500 10 7 Female 1 Ages 45 - 49 Bridget Godfrey 11 00:13:10
500 11 8 Female 1 Ages 25 - 29 Amy Wells 26 00:13:16
500 12 9 Female 2 Ages 55 - 59 Jevgenija Plummer 19 00:13:18
500 13 10 Female 1 Ages 35 - 39 Rebecca Taylor 23 00:13:21
500 14 4 Male 1 Ages 50 - 54 Phil Stafford 39 00:13:31
500 15 11 Female 2 Ages 30 - 34 Viktorija Sherriff 22 00:14:10
500 16 12 Female 2 Ages 45 - 49 Helen Gridley 117 00:14:15
500 17 5 Male 1 Ages 45 - 49 Ian Brady 32 00:14:32
500 18 13 Female 3 Ages 55 - 59 Clare Moss 18 00:14:49
500 19 6 Male 2 Ages 45 - 49 Jason Temprell 37 00:15:44
500 20 14 Female 4 Ages 55 - 59 Rachel Hodson-Gibbons 16 00:17:05
500 21 15 Female 2 Ages 50 - 54 Sara Wright 28 00:17:13
500 22 16 Female 5 Ages 55 - 59 Dawn Hilton 15 00:17:26
500 23 17 Female 6 Ages 55 - 59 Eileen Moore 348 00:18:29
500 24 18 Female 2 Ages 35 - 39 Caroline Roper 20 Pdsa 00:19:29
500 25 19 Female 2 Ages 25 - 29 Katherine Van Kroonenburg 25 00:19:30
500 26 20 Female 3 Ages 30 - 34 Freya Satchell 21 00:19:31
500 27 21 Female 7 Ages 55 - 59 Helen Clarke 5 00:21:44
500 28 22 Female 8 Ages 55 - 59 Kathryn Tracy 24 00:22:04
500 29 7 Male 1 Ages 55 - 59 David Heppingstall 34 00:22:10
500 30 23 Female 4 Under 18 Scarlett Clarke 6 00:24:25
500 31 24 Female 1 Ages 40 - 44 Sophie Clarke 7 00:24:27
500 32 25 Female 3 Ages 45 - 49 Debbie Hilton 14 00:28:55
500 33 26 Female 9 Ages 55 - 59 Dorothy Yeates 29 00:33:47
500 34 1 Unknown Number 337 337 01:11:49
EventId Overall Pos Gender Pos Gender Categ Pos Category First name Last name Race num Club Time

Swim Rutland 2022 2km results

EventDescr Overall Pos Gender Pos Gender Categ Pos Category First name Last name Race num Club Time
2km 1 1 Male 1 Ages 35 - 39 Jamie Hockley 276 100% Tri 00:31:53
2km 2 1 Female 1 Under 18 Isla Fulluck-Holmes 108 City of Peterborough Swimming Club 00:31:54
2km 3 2 Male 1 Ages 60 - 64 Caerveth Shewell-Cooper 304 Potters bar 00:32:40
2km 4 2 Female 2 Under 18 Lucy Dando 90 Corby Amateur Swimming Club 00:32:44
2km 5 3 Male 1 Ages 18 - 24 Phil Davis 253 Norwich Swan SC 00:32:57
2km 6 3 Female 1 Ages 35 - 39 Joanne Griffiths 118 Bedworth Masters 00:33:00
2km 7 4 Male 1 Ages 45 - 49 Glen Gilbert 264 00:33:13
2km 8 5 Male 1 Ages 55 - 59 Julian Pavier 295 Worksop Dolphins 00:33:55
2km 9 6 Male 2 Ages 55 - 59 Simon Bradford 677 00:34:17
2km 10 4 Female 3 Under 18 Harriet Casey 80 Corby Swimming Club 00:34:28
2km 11 7 Male 1 Under 18 Tom Naylor 292 Stamford School Swim Team 00:35:54
2km 12 5 Female 1 Ages 30 - 34 Jane Beagles 63 00:36:03
2km 13 6 Female 4 Under 18 Sarah Dew 93 Oadby & Wigston Swimming Club 00:36:15
2km 14 8 Male 3 Ages 55 - 59 Carl Baxter 237 00:37:11
2km 15 7 Female 5 Under 18 Amy Taylor 208 Oadby & Wigston Swimming Club 00:37:27
2km 16 9 Male 4 Ages 55 - 59 Dave Wall 319 00:37:37
2km 17 8 Female 1 Ages 25 - 29 Rosie Earnden 99 00:38:01
2km 18 10 Male 5 Ages 55 - 59 Andy Williams 321 Cambridge Tri / AM Activ Race Team 00:38:09
2km 19 11 Male 2 Ages 45 - 49 Christopher Duncan 255 Lincoln Tri 00:38:16
2km 20 12 Male 1 Ages 40 - 44 Anselmo Pelembe 296 00:38:52
2km 21 9 Female 6 Under 18 Grace Mason 160 Bishop's Stortford SC 00:38:56
2km 22 13 Male 2 Ages 40 - 44 Ross Appleton 232 00:39:09
2km 23 14 Male 1 Ages 25 - 29 Richard Gandeborn 263 TFN Tri Club 00:39:15
2km 24 15 Male 2 Under 18 Riley Brown 242 00:39:50
2km 25 10 Female 7 Under 18 Chloe Taylor 207 Oadby & Wigston Swimming Club 00:39:58
2km 26 16 Male 1 Ages 50 - 54 Jonathan Greaves 268 WVTri 00:39:59
2km 27 17 Male 6 Ages 55 - 59 Eugene Gormley 267 Potters bar 00:40:16
2km 28 11 Female 8 Under 18 Maisy Smith 200 Owswimclub@gmail.com 00:40:33
2km 29 18 Male 1 Ages 70 - 74 Rodney Marks 283 Deeping swimming Club 00:41:14
2km 30 19 Male 2 Ages 60 - 64 Raymond Richardson 298 00:41:42
2km 31 20 Male 3 Ages 45 - 49 Dan Williams 322 00:42:52
2km 32 21 Male 4 Ages 45 - 49 Colin Brackley 240 00:42:53
2km 33 22 Male 2 Ages 50 - 54 Dave Kenyon 281 00:43:17
2km 34 23 Male 3 Ages 50 - 54 Robert Brown 243 00:43:48
2km 35 24 Male 2 Ages 25 - 29 Richard Eastwick 256 00:44:08
2km 36 25 Male 4 Ages 50 - 54 Paul Varnam 317 00:44:08
2km 37 26 Male 2 Ages 35 - 39 Gareth Simpson 305 Revolution Tri 00:44:09
2km 38 27 Male 3 Ages 35 - 39 Chris Brown 244 00:44:40
2km 39 12 Female 1 Ages 40 - 44 Carmela Rizza Hernandez 670 00:44:58
2km 40 13 Female 2 Ages 25 - 29 Victoria Sharpe 194 Stratford Upon avon Tri Club 00:45:18
2km 41 28 Male 3 Ages 40 - 44 Jamie Brown 245 00:45:31
2km 42 14 Female 1 Ages 50 - 54 Elaine Bradford 676 00:45:37
2km 43 29 Male 5 Ages 45 - 49 Warren Hodgett 277 00:45:45
2km 44 15 Female 2 Ages 35 - 39 Michelle Kent 428 00:45:59
2km 45 30 Male 3 Ages 60 - 64 Derek Hart 273 00:46:06
2km 46 16 Female 3 Ages 35 - 39 Margaret Forman 105 00:46:20
2km 47 17 Female 2 Ages 40 - 44 Fiona Phillips 178 00:46:29
2km 48 31 Male 7 Ages 55 - 59 Paul Harknett 272 00:46:32
2km 49 32 Male 4 Ages 60 - 64 Steve Rogers 301 Belvoir Tri Club 00:46:38
2km 50 33 Male 1 Ages 30 - 34 Daniel Jackson 279 00:46:43
2km 51 34 Male 2 Ages 30 - 34 Tom Rickett 299 00:46:51
2km 52 18 Female 3 Ages 25 - 29 Eleanor Blakey 478 00:47:00
2km 53 19 Female 1 Ages 45 - 49 Claire Boden 66 Stafford Tri Club 00:47:01
2km 54 35 Male 8 Ages 55 - 59 Dominic Mason 284 Bishop's Stortford SC 00:47:01
2km 55 36 Male 5 Ages 50 - 54 Jon Naylor 291 00:47:32
2km 56 20 Female 3 Ages 40 - 44 Helen Trill 213 00:47:33
2km 57 37 Male 4 Ages 40 - 44 Ian Walker 318 00:47:43
2km 58 38 Male 6 Ages 45 - 49 Matt Tyers 315 00:47:49
2km 59 39 Male 5 Ages 40 - 44 Robert Hewitt 275 00:48:02
2km 60 21 Female 4 Ages 35 - 39 Amanda Hewitt 128 00:48:06
2km 61 40 Male 4 Ages 35 - 39 Daniel Winfield-Chislett 325 00:48:11
2km 62 22 Female 9 Under 18 Gracie Ward 219 00:49:20
2km 63 23 Female 5 Ages 35 - 39 Victoria Roberts 333 00:49:25
2km 64 24 Female 1 Ages 60 - 64 Val Moore 170 00:49:37
2km 65 25 Female 6 Ages 35 - 39 Diana Lynch 155 00:49:39
2km 66 41 Male 6 Ages 40 - 44 Kevin Ward 320 00:49:48
2km 67 26 Female 2 Ages 50 - 54 Anna Dutton 97 Stafford Tri Club 00:49:50
2km 68 27 Female 2 Ages 60 - 64 Pauline Batten 61 00:49:56
2km 69 28 Female 2 Ages 45 - 49 Sarah French 106 00:50:03
2km 70 29 Female 7 Ages 35 - 39 Emma Light 152 00:50:09
2km 71 30 Female 3 Ages 50 - 54 Sarah Watson 221 00:50:22
2km 72 42 Male 3 Ages 30 - 34 Dave Golding 265 00:50:25
2km 73 31 Female 4 Ages 50 - 54 Ros Crudgington 89 00:50:51
2km 74 32 Female 5 Ages 50 - 54 Jo Hunt 418 Wolds Breakfast Club 00:50:53
2km 75 43 Male 3 Ages 25 - 29 Thomas Stephens 307 00:51:02
2km 76 33 Female 4 Ages 25 - 29 Fiona Smith 201 00:51:13
2km 77 34 Female 3 Ages 45 - 49 Helen Kruse 147 00:51:32
2km 78 44 Male 6 Ages 50 - 54 Mark Mcgowen 286 March Marlins 00:51:33
2km 79 35 Female 4 Ages 45 - 49 Lindsay Jefferies 138 00:51:37
2km 80 45 Male 7 Ages 40 - 44 Peter Booth 239 00:51:49
2km 81 36 Female 1 Ages 55 - 59 Deborah Kaye 141 00:52:07
2km 82 46 Male 5 Ages 35 - 39 Chris Bramley-Howell 241 00:52:17
2km 83 37 Female 6 Ages 50 - 54 Eleanor Mickleburgh 167 00:52:25
2km 84 38 Female 10 Under 18 Hana Mian 166 00:52:33
2km 85 39 Female 2 Ages 55 - 59 Jacqueline Akers 51 Blue Lagooners 00:52:52
2km 86 47 Male 7 Ages 50 - 54 Jason Tyrrell 316 00:53:09
2km 87 48 Male 9 Ages 55 - 59 John Chadwick 246 00:53:18
2km 88 40 Female 5 Ages 45 - 49 Nicola Chadwick 81 00:53:18
2km 89 49 Male 1 Ages 75 - 79 John Bennett 238 Tewkesbury Tri Club 00:53:22
2km 90 50 Male 6 Ages 35 - 39 Terry Connolly 250 Kings Lynn Triathlon Club 00:53:30
2km 91 41 Female 3 Ages 60 - 64 Lynne Hutchinson 136 00:53:30
2km 92 42 Female 8 Ages 35 - 39 Victoria Shardlow 192 00:53:33
2km 93 51 Male 8 Ages 40 - 44 Brian Temprell 310 00:53:42
2km 94 43 Female 4 Ages 40 - 44 Jo Eaton 391 WVTri 00:53:44
2km 95 44 Female 5 Ages 40 - 44 Suyeon Kim 145 00:53:50
2km 96 45 Female 6 Ages 45 - 49 Sarah Farnsworth 101 Long Eaton Triathlon Club 00:53:59
2km 97 46 Female 7 Ages 50 - 54 Jenifer Hulme 135 00:53:59
2km 98 52 Male 5 Ages 60 - 64 Trevor Marvell 328 00:54:10
2km 99 53 Male 8 Ages 50 - 54 Scott Temprell 311 Belvoir Tri Club 00:54:19
2km 100 54 Male 9 Ages 50 - 54 Jason Theobald 312 00:54:26
2km 101 55 Male 1 Ages 65 - 69 John Heathcote 274 00:54:41
2km 102 47 Female 6 Ages 40 - 44 Gilly Anderson 357 00:54:57
2km 103 48 Female 1 Ages 18 - 24 Honor Harris 125 00:55:05
2km 104 49 Female 7 Ages 40 - 44 Jennie Macphee 159 00:55:14
2km 105 56 Male 10 Ages 50 - 54 Stephen Starr 306 00:56:05
2km 106 50 Female 5 Ages 25 - 29 Rosalind Wilson 226 00:56:07
2km 107 51 Female 8 Ages 50 - 54 Amanda Holden 132 00:56:09
2km 108 52 Female 4 Ages 60 - 64 Sue Lapidge 149 00:56:40
2km 109 53 Female 3 Ages 55 - 59 Julia Dolman 96 cambridge Tri club 00:56:44
2km 110 57 Male 9 Ages 40 - 44 Mark Evans 259 00:56:55
2km 111 58 Male 3 Under 18 Rhys Hutchinson 278 00:57:06
2km 112 59 Male 6 Ages 60 - 64 David Quibell 297 00:57:09
2km 113 54 Female 9 Ages 50 - 54 Tracey Poole 331 00:57:37
2km 114 55 Female 7 Ages 45 - 49 Julia Shaw 195 00:57:55
2km 115 56 Female 9 Ages 35 - 39 Lauri Bond 67 00:58:07
2km 116 60 Male 10 Ages 40 - 44 Stefan Dalberg 251 00:58:08
2km 117 57 Female 10 Ages 35 - 39 Susanna Goodall 111 00:58:12
2km 118 61 Male 7 Ages 45 - 49 Jake Williams 334 00:58:28
2km 119 58 Female 5 Ages 60 - 64 Deborah Tyler 214 00:58:40
2km 120 59 Female 4 Ages 55 - 59 Nicky Phillips 177 00:58:49
2km 121 60 Female 8 Ages 40 - 44 Georgina Fenton 102 00:59:07
2km 122 61 Female 6 Ages 60 - 64 Karen Seaber 191 00:59:20
2km 123 62 Female 7 Ages 60 - 64 Catherine Young 231 Tri-Harman 00:59:31
2km 124 63 Female 5 Ages 55 - 59 Jennifer Esdon 392 00:59:50
2km 125 64 Female 6 Ages 55 - 59 Sue Barrow 60 Rutland Running and Triathlon Club 01:00:06
2km 126 65 Female 10 Ages 50 - 54 Joanne Beach 62 01:00:16
2km 127 66 Female 6 Ages 25 - 29 Danielle Lee 336 01:00:18
2km 128 62 Male 10 Ages 55 - 59 Kevin Appleton 233 Ashbourne Triathlon Club 01:00:29
2km 129 63 Male 11 Ages 55 - 59 Steve Latter 282 01:00:39
2km 130 64 Male 11 Ages 50 - 54 Sean Robertson 300 01:00:42
2km 131 67 Female 8 Ages 45 - 49 Charlotte Barrow 59 01:00:43
2km 132 68 Female 9 Ages 40 - 44 Shirelle Tilbrook 211 01:00:54
2km 133 69 Female 8 Ages 60 - 64 Julie O'malley 172 01:00:55
2km 134 65 Male 2 Ages 18 - 24 Oscar Banton 338 01:01:04
2km 135 70 Female 7 Ages 55 - 59 Rachel Wilson 227 01:01:19
2km 136 66 Male 2 Ages 70 - 74 Steve Seaber 303 01:01:20
2km 137 67 Male 12 Ages 50 - 54 Guy Sandford 302 01:01:31
2km 138 71 Female 10 Ages 40 - 44 Hanna Coburn 86 01:01:33
2km 139 72 Female 11 Ages 50 - 54 Catherine Kemble 144 01:01:52
2km 140 73 Female 8 Ages 55 - 59 Bev Walmsley 218 01:02:21
2km 141 74 Female 12 Ages 50 - 54 Jane Flint 104 01:02:23
2km 142 75 Female 9 Ages 45 - 49 Rachel Boyles 68 01:02:37
2km 143 76 Female 13 Ages 50 - 54 Vicky Finn 103 01:02:56
2km 144 68 Male 3 Ages 18 - 24 Max Harris 339 01:03:14
2km 145 77 Female 9 Ages 60 - 64 Mel Hasnip-Norton 126 01:03:27
2km 146 78 Female 11 Ages 40 - 44 Lynsey Lambrey De Souza 148 01:03:34
2km 147 79 Female 11 Ages 35 - 39 Laura Halford 121 01:03:35
2km 148 80 Female 12 Ages 35 - 39 Rachel Johal 139 01:03:38
2km 149 69 Male 11 Ages 40 - 44 Stephen Johal 280 01:03:40
2km 150 81 Female 9 Ages 55 - 59 Joanne Galkowski 109 01:03:40
2km 151 82 Female 10 Ages 45 - 49 Ann-Marie Mcdonnell 163 Lake 32 01:03:47
2km 152 83 Female 10 Ages 55 - 59 Kim Burton 76 01:03:56
2km 153 84 Female 14 Ages 50 - 54 Michelle Gee 110 01:03:58
2km 154 85 Female 11 Ages 55 - 59 Emma Hanson 123 01:04:51
2km 155 86 Female 12 Ages 40 - 44 Hayley Simpson 199 01:04:58
2km 156 87 Female 13 Ages 35 - 39 Harriet Brewerton 72 01:05:05
2km 157 88 Female 14 Ages 35 - 39 Kate Webbley 223 01:05:05
2km 158 89 Female 15 Ages 50 - 54 Yvette Jamieson 137 01:05:55
2km 159 90 Female 13 Ages 40 - 44 Nicole Allen 52 01:06:19
2km 160 91 Female 12 Ages 55 - 59 Judith Harper 124 Rugby Triathlon Club 01:06:22
2km 161 70 Male 12 Ages 55 - 59 Stephen Wilson 324 01:06:36
2km 162 71 Male 13 Ages 50 - 54 Lee Guffick 270 01:06:44
2km 163 92 Female 10 Ages 60 - 64 Janice Rowan 188 01:07:12
2km 164 93 Female 15 Ages 35 - 39 Tina Lathrope 150 Beccles and Bungay harriers 01:07:16
2km 165 94 Female 11 Ages 45 - 49 Shei-Lin Simmonds 198 01:07:31
2km 166 95 Female 13 Ages 55 - 59 Ruth Kent 429 01:07:42
2km 167 96 Female 1 Ages 65 - 69 Carol Shardlow 193 01:07:51
2km 168 72 Male 8 Ages 45 - 49 Guy Bibby 329 01:08:10
2km 169 97 Female 11 Under 18 Freya Bibby 330 01:08:10
2km 170 73 Male 4 Ages 18 - 24 David Buxton 335 01:08:31
2km 171 98 Female 7 Ages 25 - 29 Joy M Aston 157 01:08:50
2km 172 99 Female 14 Ages 40 - 44 Jo Shephard 327 01:09:11
2km 173 100 Female 2 Ages 65 - 69 Pam O'connell 454 01:09:21
2km 174 101 Female 12 Ages 45 - 49 Susan Paddock 174 01:09:22
2km 175 102 Female 14 Ages 55 - 59 Wendy Broad 73 The hub 01:10:15
2km 176 103 Female 15 Ages 55 - 59 Muna Roberts 186 01:10:17
2km 177 104 Female 3 Ages 65 - 69 Julia Vardy 216 vegan runners uk 01:10:49
2km 178 105 Female 4 Ages 65 - 69 Liz Maclean 158 01:11:27
2km 179 106 Female 15 Ages 40 - 44 Fay Kelham 143 01:11:37
2km 180 107 Female 11 Ages 60 - 64 Karin Coady 85 01:12:00
2km 181 74 Male 12 Ages 40 - 44 Luke Elliott 258 01:12:12
2km 182 108 Female 16 Ages 40 - 44 Claire Elliott 100 01:12:15
2km 183 109 Female 12 Ages 60 - 64 Lorraine Squires 206 01:12:22
2km 184 110 Female 17 Ages 40 - 44 Diane Lynch 156 01:12:35
2km 185 111 Female 16 Ages 35 - 39 Sarah Allen 53 01:12:38
2km 186 112 Female 16 Ages 50 - 54 Helen Mccarthy 161 01:12:40
2km 187 113 Female 13 Ages 45 - 49 Claire Mcewan 164 01:13:13
2km 188 114 Female 14 Ages 45 - 49 Alison Price 181 01:13:14
2km 189 115 Female 15 Ages 45 - 49 Alexandra Brooke 74 01:13:21
2km 190 75 Male 7 Ages 60 - 64 Kevin Tate 309 01:13:21
2km 191 116 Female 18 Ages 40 - 44 Clare Andrews 54 01:13:34
2km 192 76 Male 13 Ages 40 - 44 Ben Davies 252 01:13:59
2km 193 117 Female 19 Ages 40 - 44 Liz Mclennan 165 East Grinstead Tri Club 01:14:16
2km 194 118 Female 20 Ages 40 - 44 Sarah Davey 91 01:14:20
2km 195 77 Male 14 Ages 50 - 54 William Naylor 293 01:14:21
2km 196 78 Male 5 Ages 18 - 24 Kaylum Storey 308 01:14:56
2km 197 119 Female 16 Ages 45 - 49 Aileen Collins 87 01:15:34
2km 198 120 Female 17 Ages 45 - 49 Caroline Carter 79 01:15:52
2km 199 121 Female 21 Ages 40 - 44 Julie Keane 142 01:15:53
2km 200 79 Male 14 Ages 40 - 44 Andrew Moody 290 01:16:14
2km 201 122 Female 17 Ages 35 - 39 Kirsty Moody 169 01:16:18
2km 202 123 Female 22 Ages 40 - 44 Hannah Rushton 190 01:16:19
2km 203 124 Female 18 Ages 35 - 39 Nichola Mccloud 162 01:16:34
2km 204 125 Female 19 Ages 35 - 39 Daisy Overton 173 vegan runners uk 01:16:45
2km 205 126 Female 18 Ages 45 - 49 Dawn Smith 203 01:16:49
2km 206 127 Female 16 Ages 55 - 59 Linda Doe 95 01:17:06
2km 207 128 Female 17 Ages 50 - 54 Jeanette Threadgold 210 01:18:05
2km 208 80 Male 4 Ages 30 - 34 Gwynne Griffiths 269 01:21:40
2km 209 129 Female 18 Ages 50 - 54 Lisa Fretwell 107 01:21:52
2km 210 130 Female 13 Ages 60 - 64 Susan Green 115 01:22:21
2km 211 131 Female 20 Ages 35 - 39 Leigh Pick 179 Stilton Struders 01:22:24
2km 212 132 Female 19 Ages 50 - 54 Jo Van Landeghem 215 01:23:32
2km 213 133 Female 14 Ages 60 - 64 Julie Christie 83 NAD 01:24:06
2km 214 134 Female 19 Ages 45 - 49 Helen Smith 202 01:24:36
2km 215 135 Female 20 Ages 45 - 49 Lara Peach 175 01:24:38
2km 216 136 Female 2 Ages 30 - 34 Tiffany Webster 224 01:25:25
2km 217 81 Male 15 Ages 40 - 44 Steven Clay 247 01:25:25
2km 218 137 Female 21 Ages 45 - 49 Sarah Banning 56 Netherton 01:26:25
2km 219 138 Female 22 Ages 45 - 49 Elizabeth Waight 217 01:26:31
2km 220 139 Female 3 Ages 30 - 34 Amanda Bradshaw 69 01:26:44
2km 221 140 Female 23 Ages 45 - 49 Angela Soames 204 Bluetits 01:27:05
2km 222 141 Female 20 Ages 50 - 54 Clare Hill 130 01:27:21
2km 223 82 Male 4 Under 18 Luke Davis 254 01:27:30
2km 224 142 Female 24 Ages 45 - 49 Julie Davis 92 01:27:31
2km 225 143 Female 25 Ages 45 - 49 Kerry Williams 225 01:28:02
2km 226 144 Female 21 Ages 50 - 54 Jude Habib 120 01:29:48
2km 227 145 Female 22 Ages 50 - 54 Charlotte Simmonds 197 01:31:35
2km 228 146 Female 26 Ages 45 - 49 Hannah Hall 122 01:32:39
2km 229 147 Female 27 Ages 45 - 49 Nicola Bramley-Howell 70 01:33:32
2km 230 148 Female 28 Ages 45 - 49 Fiona Lovell 154 01:38:11
2km 231 149 Female 4 Ages 30 - 34 Elizabeth Aspland 55 01:38:23
2km 232 83 Male 5 Ages 30 - 34 Jonathan Aspland 234 01:38:25
2km 233 150 Female 5 Ages 30 - 34 Rachel Dickinson 94 01:40:39
2km 234 151 Female 29 Ages 45 - 49 Laura Grist 119 01:56:18
2km 235 152 Female 30 Ages 45 - 49 Sarah Randall 183 02:04:39
EventDescr Overall Pos Gender Pos Gender Categ Pos Category First name Last name Race num Club Time

Swim Rutland 2022 4km results

EventId EventDescr Overall Pos Gender Pos Gender Categ Pos Category First name Last name Race num Club Time
4,000 4km 1 1 Female 1 Ages 40 - 44 Susan Evans 394 Biggleswade Swimming Club 01:01:48
4,000 4km 2 2 Female 1 Ages 18 - 24 Eleanor Mason 446 City of Cambridge Swimming Club 01:02:27
4,000 4km 3 3 Female 1 Under 18 Lizzy Crudgington 384 Southend on sea sc 01:02:31
4,000 4km 4 1 Male 1 Ages 40 - 44 Ian Ray 608 01:02:35
4,000 4km 5 2 Male 1 Ages 30 - 34 Allan Mcroberts 590 Tri Anglia 01:03:24
4,000 4km 6 3 Male 1 Ages 60 - 64 Ian Wood 653 01:03:30
4,000 4km 7 4 Male 2 Ages 60 - 64 John Thompson 635 01:04:02
4,000 4km 8 5 Male 1 Ages 35 - 39 Paul Rowland 611 WVTri 01:04:03
4,000 4km 9 6 Male 1 Ages 18 - 24 Patrick Stone 626 Leicester Tri Club 01:05:22
4,000 4km 10 7 Male 2 Ages 40 - 44 Martin Lander 587 01:06:02
4,000 4km 11 4 Female 1 Ages 45 - 49 Sara Hindry 414 Biggleswade Swimming Club 01:06:14
4,000 4km 12 8 Male 2 Ages 30 - 34 Neil Tandy 629 01:07:01
4,000 4km 13 9 Male 1 Ages 50 - 54 Richard Jefferies 578 Riot Racing Club 01:07:13
4,000 4km 14 10 Male 1 Ages 45 - 49 Gareth Walker 642 01:07:31
4,000 4km 15 11 Male 2 Ages 35 - 39 Jamie Sillett 615 01:07:36
4,000 4km 16 5 Female 1 Ages 60 - 64 Carol Trower 487 01:07:46
4,000 4km 17 12 Male 1 Ages 25 - 29 James Abbott 505 Deepings Swimming Club 01:09:06
4,000 4km 18 13 Male 3 Ages 30 - 34 Manish Hiran 568 Belvoir Tri Club 01:09:16
4,000 4km 19 14 Male 2 Ages 50 - 54 Andrew Clarke 528 01:09:36
4,000 4km 20 15 Male 3 Ages 60 - 64 Stuart Trower 638 01:09:42
4,000 4km 21 6 Female 1 Ages 30 - 34 Juliette Rampley 460 Long Eaton SC Masters 01:09:51
4,000 4km 22 16 Male 1 Ages 55 - 59 John Batchelor 511 BRJ Run and Tri 01:09:55
4,000 4km 23 17 Male 2 Ages 25 - 29 Thomas Rich 604 Evolve 01:11:06
4,000 4km 24 18 Male 3 Ages 35 - 39 Graeme Evans 545 01:11:07
4,000 4km 25 19 Male 2 Ages 45 - 49 Andrew Peakman 596 Edinburgh Triathletes 01:11:16
4,000 4km 26 20 Male 4 Ages 60 - 64 Martin Etchells 544 01:11:47
4,000 4km 27 21 Male 3 Ages 50 - 54 Dave Bates 512 01:11:49
4,000 4km 28 7 Female 1 Ages 50 - 54 Louise Jarvis 423 Biggleswade Swimming Club 01:11:59
4,000 4km 29 22 Male 4 Ages 35 - 39 Ewan Barron 509 01:12:45
4,000 4km 30 23 Male 2 Ages 55 - 59 David Blanchard 517 01:13:11
4,000 4km 31 24 Male 4 Ages 30 - 34 Mark White 647 01:13:13
4,000 4km 32 25 Male 5 Ages 30 - 34 Tom Wilson 652 01:13:33
4,000 4km 33 26 Male 3 Ages 45 - 49 Simon Overing 595 01:13:42
4,000 4km 34 8 Female 2 Ages 45 - 49 Maxine Lane 437 01:13:57
4,000 4km 35 27 Male 5 Ages 60 - 64 Barry Norwood 594 01:13:59
4,000 4km 36 9 Female 1 Ages 25 - 29 Naomi Macphail 445 Team Trident 01:14:05
4,000 4km 37 28 Male 6 Ages 30 - 34 Aneez Mohamed 591 01:14:06
4,000 4km 38 29 Male 6 Ages 60 - 64 Roger Smith 619 01:14:38
4,000 4km 39 10 Female 2 Ages 40 - 44 Renee Wright 502 Leicester masters swimming club 01:14:45
4,000 4km 40 11 Female 2 Ages 60 - 64 Valerie Cummings 386 BRJ Run and Tri 01:15:02
4,000 4km 41 30 Male 4 Ages 45 - 49 Daniel Richardson 606 Rabbies Raiders 01:15:05
4,000 4km 42 31 Male 3 Ages 40 - 44 Nathaniel Walker 643 01:15:07
4,000 4km 43 32 Male 7 Ages 60 - 64 Roger Blackmore 515 BRJ Huntingdon 01:15:19
4,000 4km 44 33 Male 1 Ages 70 - 74 Martin Sarsfield 612 Long Eaton swimming club. 01:15:28
4,000 4km 45 12 Female 2 Ages 50 - 54 Alice Barnes 363 Meridian Triathlon Club 01:15:34
4,000 4km 46 34 Male 7 Ages 30 - 34 Jon Banks 507 01:15:59
4,000 4km 47 35 Male 4 Ages 40 - 44 Slawomir Szuba 628 01:16:00
4,000 4km 48 36 Male 8 Ages 30 - 34 Benedict Goold 555 01:16:09
4,000 4km 49 37 Male 5 Ages 45 - 49 Chris Baker 666 01:16:12
4,000 4km 50 38 Male 4 Ages 50 - 54 Darren Thoirs 633 WVTri 01:16:16
4,000 4km 51 13 Female 1 Ages 55 - 59 Constance Gilbert Gilbert 400 01:16:18
4,000 4km 52 14 Female 3 Ages 60 - 64 Elspeth Goodspeed 402 Meridian Triathlon Club 01:16:34
4,000 4km 53 15 Female 2 Ages 25 - 29 Amber Coughlan 381 Camp Hill Edwardians 01:16:58
4,000 4km 54 16 Female 2 Under 18 Tyler Kelly-Cooper 427 Camp Hill Edwardians 01:16:58
4,000 4km 55 39 Male 5 Ages 35 - 39 Matthew Quibell 602 Bassetlaw Triathlon Club 01:17:06
4,000 4km 56 40 Male 5 Ages 50 - 54 David Scott 673 01:17:23
4,000 4km 57 41 Male 6 Ages 45 - 49 Robert Spashett 622 Belvoir Tri Club 01:17:24
4,000 4km 58 42 Male 1 Under 18 James Rowe 610 01:17:39
4,000 4km 59 43 Male 5 Ages 40 - 44 Stuart Turner 639 01:17:47
4,000 4km 60 44 Male 1 Ages 65 - 69 Tony Baskeyfield 510 Deeping Swim Club 01:17:50
4,000 4km 61 17 Female 3 Ages 50 - 54 Tracy Carr 375 01:17:55
4,000 4km 62 18 Female 3 Ages 45 - 49 Sarah Terry 668 01:18:01
4,000 4km 63 45 Male 6 Ages 35 - 39 Chris Doidge 541 01:18:07
4,000 4km 64 19 Female 2 Ages 30 - 34 Ella Mccahill 448 Long Eaton Sharks 01:18:09
4,000 4km 65 20 Female 1 Ages 35 - 39 Jane Stalker 477 01:18:12
4,000 4km 66 46 Male 9 Ages 30 - 34 Tom Butt 675 01:18:16
4,000 4km 67 21 Female 4 Ages 45 - 49 Jennifer Moore 450 Trafford masters 01:18:18
4,000 4km 68 47 Male 3 Ages 25 - 29 Andrew Farrington 546 01:18:23
4,000 4km 69 48 Male 6 Ages 40 - 44 Ian Tennant 631 01:18:35
4,000 4km 70 49 Male 10 Ages 30 - 34 Tom Griffiths 558 01:18:41
4,000 4km 71 50 Male 6 Ages 50 - 54 Nick Powis 600 01:19:02
4,000 4km 72 51 Male 7 Ages 45 - 49 Paul Davies 538 01:19:24
4,000 4km 73 52 Male 8 Ages 45 - 49 Gordon Kilroy 584 01:19:48
4,000 4km 74 22 Female 4 Ages 60 - 64 Kate Bulbeck 371 GreenlightPT 01:19:49
4,000 4km 75 53 Male 3 Ages 55 - 59 Mark Blackmore 516 01:19:51
4,000 4km 76 23 Female 3 Ages 30 - 34 Sarah Hara 408 01:20:18
4,000 4km 77 54 Male 7 Ages 35 - 39 Rob Jones 669 01:20:20
4,000 4km 78 24 Female 4 Ages 30 - 34 Jessica Verrall 490 East London Triathletes 01:20:27
4,000 4km 79 55 Male 4 Ages 25 - 29 Robert Schwarz 613 01:20:32
4,000 4km 80 56 Male 9 Ages 45 - 49 Chris Richardson 607 01:20:39
4,000 4km 81 25 Female 4 Ages 50 - 54 Nikki Balding 360 Tri Harman 01:20:41
4,000 4km 82 26 Female 2 Ages 55 - 59 Vicki Smith 473 01:21:00
4,000 4km 83 57 Male 7 Ages 40 - 44 Paul Jackson 577 Grimsby triathlon club 01:21:00
4,000 4km 84 58 Male 4 Ages 55 - 59 Michael Dobson 540 01:21:10
4,000 4km 85 59 Male 10 Ages 45 - 49 Jean-Sebastien Need Dob 778 01:21:13
4,000 4km 86 27 Female 5 Ages 50 - 54 Polly Lunn 665 01:21:23
4,000 4km 87 60 Male 5 Ages 55 - 59 David Waters 644 newmarket cycling & triathlon club 01:21:28
4,000 4km 88 61 Male 11 Ages 45 - 49 Ross Faulkner 547 01:21:30
4,000 4km 89 62 Male 7 Ages 50 - 54 Nick Clarke 674 01:21:49
4,000 4km 90 63 Male 2 Ages 65 - 69 Leslie Piggott 599 01:21:51
4,000 4km 91 64 Male 11 Ages 30 - 34 Alex Daffern 536 01:22:01
4,000 4km 92 28 Female 5 Ages 45 - 49 Ashley Blake 368 01:22:04
4,000 4km 93 65 Male 8 Ages 35 - 39 Paul Richardson 605 01:22:44
4,000 4km 94 29 Female 2 Ages 18 - 24 Ellie Fretwell 398 01:22:54
4,000 4km 95 66 Male 8 Ages 50 - 54 Robin Beardmore 514 01:23:03
4,000 4km 96 67 Male 2 Ages 70 - 74 Martin Shewry 614 Insp2tri 01:23:13
4,000 4km 97 68 Male 3 Ages 65 - 69 Keith Esdon 739 Leighton Buzzard Tri Club 01:23:15
4,000 4km 98 69 Male 6 Ages 55 - 59 Richard Crawford 533 NOWCA 01:23:16
4,000 4km 99 70 Male 9 Ages 50 - 54 Will Price Need Dob 660 01:23:25
4,000 4km 100 30 Female 6 Ages 50 - 54 Sally Taylor 486 Harrogate Triathlon Club 01:23:30
4,000 4km 101 31 Female 3 Ages 55 - 59 Alice Grant 405 Deepings Swimming Club 01:23:32
4,000 4km 102 71 Male 8 Ages 60 - 64 Steve Hunt 574 Wolds Breakfast Club 01:23:40
4,000 4km 103 72 Male 12 Ages 45 - 49 Alex Stead 663 Bronwyn Higgins 01:24:19
4,000 4km 104 73 Male 10 Ages 50 - 54 Simon Pepper 597 01:24:23
4,000 4km 105 74 Male 11 Ages 50 - 54 Brian Henderson 566 Tri Anglia 01:24:53
4,000 4km 106 32 Female 4 Ages 55 - 59 Helen Atherton 358 City of Coventry Masters 01:24:56
4,000 4km 107 75 Male 12 Ages 50 - 54 David Hayward 565 01:25:08
4,000 4km 108 76 Male 13 Ages 45 - 49 Christopher Whitfield 648 01:25:13
4,000 4km 109 77 Male 12 Ages 30 - 34 Chris Stanley 625 01:25:23
4,000 4km 110 78 Male 13 Ages 50 - 54 Ian Folkard 549 Tri Anglia 01:25:55
4,000 4km 111 79 Male 7 Ages 55 - 59 Neill Case 525 01:25:57
4,000 4km 112 80 Male 14 Ages 50 - 54 John Moore 659 01:26:24
4,000 4km 113 33 Female 3 Ages 18 - 24 Amber Meakins 449 01:26:26
4,000 4km 114 34 Female 6 Ages 45 - 49 Heide Kloeppel 434 01:26:29
4,000 4km 115 35 Female 5 Ages 55 - 59 Susan Rich 463 Evolve 01:26:46
4,000 4km 116 36 Female 5 Ages 30 - 34 Loren Wright 501 01:26:49
4,000 4km 117 37 Female 3 Ages 25 - 29 Rebecca Auster 359 01:26:50
4,000 4km 118 81 Male 13 Ages 30 - 34 Ed Hadcock 560 Sexy Walrus 01:26:51
4,000 4km 119 38 Female 3 Ages 40 - 44 Liz Brown 370 01:26:53
4,000 4km 120 82 Male 15 Ages 50 - 54 Wayne Smith 617 01:26:58
4,000 4km 121 39 Female 7 Ages 45 - 49 Jenny Skerritt 470 01:27:21
4,000 4km 122 40 Female 8 Ages 45 - 49 Helen Cooper 380 RAF Tri 01:27:34
4,000 4km 123 83 Male 14 Ages 45 - 49 Will Kinnear 585 01:27:34
4,000 4km 124 41 Female 2 Ages 35 - 39 Katharine Baxter 365 Wellingborough and District AC 01:27:36
4,000 4km 125 42 Female 6 Ages 55 - 59 Ann Tryssesoone 488 Freedom Tri 01:27:54
4,000 4km 126 84 Male 9 Ages 60 - 64 Stephen Jones 580 01:28:04
4,000 4km 127 43 Female 9 Ages 45 - 49 Paula Stretton 479 01:28:25
4,000 4km 128 44 Female 3 Ages 35 - 39 Vikki Sharpe 469 01:29:01
4,000 4km 129 45 Female 10 Ages 45 - 49 Sarah Halford 406 Long Eaton swimming club. 01:29:18
4,000 4km 130 85 Male 9 Ages 35 - 39 Egidijus Perednis 598 01:29:24
4,000 4km 131 86 Male 10 Ages 60 - 64 Keith Williams 650 Hereford Triathlon 01:29:25
4,000 4km 132 46 Female 11 Ages 45 - 49 Lorna Clark 377 01:29:29
4,000 4km 133 87 Male 11 Ages 60 - 64 Robert Hopper 570 01:29:57
4,000 4km 134 47 Female 7 Ages 55 - 59 Helen Soiris 475 Chesterfield Tri 01:30:00
4,000 4km 135 48 Female 4 Ages 25 - 29 Helen Bickerstaff 367 1485 tri club 01:30:01
4,000 4km 136 88 Male 16 Ages 50 - 54 Nelson Hunter 575 Cleethorpes Tri Club 01:30:16
4,000 4km 137 89 Male 8 Ages 55 - 59 Chris Smith 620 Freedom Tri 01:30:34
4,000 4km 138 90 Male 17 Ages 50 - 54 Steve Groves 559 Chesterfield Tri 01:30:39
4,000 4km 139 91 Male 15 Ages 45 - 49 Simon Crosswaite 534 01:30:51
4,000 4km 140 92 Male 9 Ages 55 - 59 Paul Smiles 616 01:30:57
4,000 4km 141 49 Female 4 Ages 35 - 39 Christy Lodge 440 01:31:12
4,000 4km 142 50 Female 7 Ages 50 - 54 Louise Comfort 378 Belvoir Tri Club 01:31:17
4,000 4km 143 93 Male 10 Ages 55 - 59 Ray Thompson 634 Welland Valley Tri Club 01:31:24
4,000 4km 144 51 Female 5 Ages 35 - 39 Ruth Hall 407 01:31:29
4,000 4km 145 52 Female 8 Ages 50 - 54 Tracey Brazier 369 01:31:33
4,000 4km 146 53 Female 6 Ages 35 - 39 Natasha Maynard 447 Willesden Triathlon Club 01:31:38
4,000 4km 147 54 Female 6 Ages 30 - 34 Lucy Bell 366 Grimsby triathlon club 01:31:44
4,000 4km 148 55 Female 4 Ages 40 - 44 Helen Allen 356 Long Eaton Triathlon Club 01:31:45
4,000 4km 149 56 Female 12 Ages 45 - 49 Tammy Goddard 401 01:31:51
4,000 4km 150 94 Male 14 Ages 30 - 34 James Thomas 313 01:31:53
4,000 4km 151 95 Male 16 Ages 45 - 49 Cary Hadfield 561 01:32:01
4,000 4km 152 57 Female 9 Ages 50 - 54 Sharron Wilson 498 01:32:03
4,000 4km 153 96 Male 18 Ages 50 - 54 James House 572 01:32:11
4,000 4km 154 58 Female 10 Ages 50 - 54 Joanne Highfield 411 Lincoln Vulcans 01:32:28
4,000 4km 155 59 Female 11 Ages 50 - 54 Emma Hindley 413 01:32:31
4,000 4km 156 97 Male 19 Ages 50 - 54 Si Spence 623 Tri-Harman 01:32:38
4,000 4km 157 60 Female 13 Ages 45 - 49 Katherine Walton 493 01:32:46
4,000 4km 158 61 Female 8 Ages 55 - 59 Jo Lockhart 661 01:33:10
4,000 4km 159 62 Female 12 Ages 50 - 54 Linda Rands 461 100% Tri 01:33:24
4,000 4km 160 63 Female 4 Ages 18 - 24 Lydia Gough 403 Oadby & Wigston Swimming Club 01:33:32
4,000 4km 161 64 Female 14 Ages 45 - 49 Karen Burton 372 Camp Hill Edwardians 01:33:41
4,000 4km 162 65 Female 15 Ages 45 - 49 Cathy Scott 467 Coventry Masters 01:33:58
4,000 4km 163 66 Female 9 Ages 55 - 59 Sue Pyman 459 01:33:59
4,000 4km 164 67 Female 7 Ages 35 - 39 Sarah Cumberpatch 385 01:34:03
4,000 4km 165 98 Male 17 Ages 45 - 49 Mark Lacy 586 Freedom Tri 01:34:07
4,000 4km 166 99 Male 11 Ages 55 - 59 Steve Palfreman 667 01:34:25
4,000 4km 167 100 Male 10 Ages 35 - 39 Tony Stratton 627 01:34:28
4,000 4km 168 68 Female 5 Ages 60 - 64 Kate Robathan 465 01:34:30
4,000 4km 169 101 Male 8 Ages 40 - 44 James Edmondson 543 01:34:35
4,000 4km 170 102 Male 15 Ages 30 - 34 Louis Moore 592 01:34:52
4,000 4km 171 103 Male 9 Ages 40 - 44 Chris Howe 573 01:35:11
4,000 4km 172 104 Male 11 Ages 35 - 39 Kuba Cioczek 527 01:35:19
4,000 4km 173 69 Female 13 Ages 50 - 54 Jo Aatkar 351 01:35:37
4,000 4km 174 70 Female 8 Ages 35 - 39 Jo Slota-Newson 472 Walden TRI 01:35:44
4,000 4km 175 71 Female 14 Ages 50 - 54 Sal Philpott 458 01:35:54
4,000 4km 176 72 Female 15 Ages 50 - 54 Karen Kenyon 430 01:36:07
4,000 4km 177 105 Male 12 Ages 55 - 59 David Fitzpatrick 548 01:36:09
4,000 4km 178 106 Male 12 Ages 35 - 39 Fraser Geddes 552 01:36:36
4,000 4km 179 73 Female 16 Ages 50 - 54 Helen Graham 404 01:36:37
4,000 4km 180 74 Female 10 Ages 55 - 59 Sophia Sladden 471 01:36:52
4,000 4km 181 107 Male 10 Ages 40 - 44 Nick Currie 535 01:37:25
4,000 4km 182 75 Female 17 Ages 50 - 54 Jessica Walsh-Banks 492 01:37:27
4,000 4km 183 76 Female 18 Ages 50 - 54 Rachel Devaney 388 Grimsby triathlon club 01:37:36
4,000 4km 184 77 Female 11 Ages 55 - 59 Janet Worrell 500 01:38:00
4,000 4km 185 108 Male 4 Ages 65 - 69 Stephen Presland 601 Fenland Clarion 01:38:31
4,000 4km 186 78 Female 16 Ages 45 - 49 Rona Mackenzie 443 01:38:36
4,000 4km 187 79 Female 5 Ages 40 - 44 Farah Korimbocus 435 01:38:52
4,000 4km 188 109 Male 18 Ages 45 - 49 Graeme Brannen 519 Coventry Triathlon 01:38:56
4,000 4km 189 80 Female 12 Ages 55 - 59 Sally Taylor 484 01:38:59
4,000 4km 190 81 Female 5 Ages 25 - 29 Roseanna Taylor 483 Tunbridge wells triathlon club 01:38:59
4,000 4km 191 82 Female 13 Ages 55 - 59 Karen Wood 499 Kings Lynn Triathlon Club 01:39:21
4,000 4km 192 110 Male 19 Ages 45 - 49 Jason Mullings 593 01:40:04
4,000 4km 193 111 Male 11 Ages 40 - 44 George Harris 564 01:40:09
4,000 4km 194 83 Female 17 Ages 45 - 49 Johanna Riches 464 01:40:22
4,000 4km 195 84 Female 6 Ages 40 - 44 Anna Seaman 468 01:40:39
4,000 4km 196 85 Female 18 Ages 45 - 49 Clare Forknell 396 01:40:54
4,000 4km 197 112 Male 13 Ages 35 - 39 James Bream 520 Stafford Tri Club 01:41:01
4,000 4km 198 86 Female 19 Ages 50 - 54 Suzanne Stubbings 480 T3 Tadcaster Triathlon Club 01:41:05
4,000 4km 199 113 Male 14 Ages 35 - 39 Matthew Southerington 621 01:41:08
4,000 4km 200 114 Male 20 Ages 50 - 54 Paul Smith 618 Belvoir Tri Club 01:41:12
4,000 4km 201 87 Female 7 Ages 40 - 44 Lynsey Dunne 390 01:41:34
4,000 4km 202 115 Male 20 Ages 45 - 49 Nick Brown 522 01:42:03
4,000 4km 203 88 Female 6 Ages 60 - 64 Gillian Green 658 01:43:05
4,000 4km 204 89 Female 9 Ages 35 - 39 Jessica Wynn-Werninck 503 01:43:08
4,000 4km 205 90 Female 7 Ages 60 - 64 Julie Taylor 485 01:43:35
4,000 4km 206 91 Female 19 Ages 45 - 49 Sarah Morley 451 Barrow Runners 01:43:36
4,000 4km 207 116 Male 5 Ages 65 - 69 Alasdair Wills 651 Lincoln Tri 01:43:40
4,000 4km 208 92 Female 20 Ages 45 - 49 Rebecca Lord 441 01:44:05
4,000 4km 209 117 Male 13 Ages 55 - 59 Andy Tibbals 636 Harrogate Triathlon Club 01:44:37
4,000 4km 210 118 Male 12 Ages 40 - 44 Andras Horvath 571 01:45:10
4,000 4km 211 93 Female 14 Ages 55 - 59 Claire Jenkinson 424 01:45:17
4,000 4km 212 119 Male 13 Ages 40 - 44 John Hallissey 562 01:45:31
4,000 4km 213 120 Male 14 Ages 55 - 59 Gary Freeman 550 01:46:42
4,000 4km 214 94 Female 8 Ages 60 - 64 Susan Smith 474 01:47:17
4,000 4km 215 95 Female 20 Ages 50 - 54 Isla Kuhn 436 01:47:42
4,000 4km 216 96 Female 8 Ages 40 - 44 Anna Jones 425 01:47:48
4,000 4km 217 97 Female 9 Ages 40 - 44 Natalie Rennie 672 01:47:51
4,000 4km 218 121 Male 6 Ages 65 - 69 Bob Batten 513 01:47:53
4,000 4km 219 98 Female 21 Ages 45 - 49 Zoe Wyrko 504 01:47:59
4,000 4km 220 99 Female 15 Ages 55 - 59 Rowena Homan 416 Wansford Walrus 01:48:38
4,000 4km 221 100 Female 10 Ages 35 - 39 Harriet Allen 355 01:48:55
4,000 4km 222 101 Female 7 Ages 30 - 34 Mary Tait 482 01:48:56
4,000 4km 223 122 Male 15 Ages 35 - 39 Jonathan Collins 529 01:49:18
4,000 4km 224 102 Female 21 Ages 50 - 54 Sarah Barkham 362 01:49:40
4,000 4km 225 123 Male 15 Ages 55 - 59 Neil Rackham 603 01:50:16
4,000 4km 226 124 Male 21 Ages 45 - 49 Peter Mchenry 589 01:50:23
4,000 4km 227 125 Male 22 Ages 45 - 49 George Holland 569 01:50:53
4,000 4km 228 103 Female 16 Ages 55 - 59 Christine Mackey 444 01:51:17
4,000 4km 229 126 Male 23 Ages 45 - 49 Jon Granshaw 556 MK OWS 01:51:31
4,000 4km 230 104 Female 22 Ages 50 - 54 Jacqueline Kersey 432 01:52:18
4,000 4km 231 105 Female 17 Ages 55 - 59 Linda Rowe 466 01:52:27
4,000 4km 232 106 Female 22 Ages 45 - 49 Kirsty Jones 426 01:52:38
4,000 4km 233 107 Female 23 Ages 50 - 54 Kathryn Nethercott 453 01:53:16
4,000 4km 234 108 Female 11 Ages 35 - 39 Alexandra Damazer 387 01:53:29
4,000 4km 235 109 Female 6 Ages 25 - 29 Vivian Lee 438 01:54:23
4,000 4km 236 110 Female 18 Ages 55 - 59 Claire Nash 452 01:55:03
4,000 4km 237 111 Female 24 Ages 50 - 54 Louise Hill 412 01:55:06
4,000 4km 238 127 Male 16 Ages 55 - 59 Simon Butdock 523 01:55:37
4,000 4km 239 128 Male 21 Ages 50 - 54 Chris Waghorn 640 01:55:37
4,000 4km 240 112 Female 10 Ages 40 - 44 Rebecca Cavill 376 01:56:26
4,000 4km 241 129 Male 22 Ages 50 - 54 Jonathan Hand 563 01:57:18
4,000 4km 242 113 Female 11 Ages 40 - 44 Zoe Ward 495 100% Tri 01:57:19
4,000 4km 243 114 Female 23 Ages 45 - 49 Charlotte Canlin 374 Swim fit cotgrave 01:57:36
4,000 4km 244 115 Female 24 Ages 45 - 49 Rachel Wade 491 01:57:39
4,000 4km 245 116 Female 12 Ages 40 - 44 Joanna Wignall 496 01:57:51
4,000 4km 246 117 Female 12 Ages 35 - 39 Samantha Adams 353 01:58:00
4,000 4km 247 130 Male 16 Ages 30 - 34 Matthew Gray 557 01:58:27
4,000 4km 248 118 Female 25 Ages 45 - 49 Sarah-Jane Macdonald 442 Three Counties Running Club 01:58:51
4,000 4km 249 131 Male 3 Ages 70 - 74 Charles Davies 537 01:59:09
4,000 4km 250 132 Male 17 Ages 55 - 59 Nick Wales 641 01:59:11
4,000 4km 251 119 Female 13 Ages 40 - 44 Lizzie Gamble 399 01:59:47
4,000 4km 252 120 Female 25 Ages 50 - 54 Fiona Hunter 419 Grimsby triathlon club 02:00:02
4,000 4km 253 133 Male 23 Ages 50 - 54 Paul Tennyson 632 02:00:39
4,000 4km 254 121 Female 14 Ages 40 - 44 Sarah Hull 417 02:03:56
4,000 4km 255 134 Male 17 Ages 30 - 34 Nathan Britten 521 02:06:08
4,000 4km 256 122 Female 8 Ages 30 - 34 Nicola Leng-Russell 439 02:09:11
4,000 4km 257 123 Female 13 Ages 35 - 39 Lindsay Rees 462 02:09:32
4,000 4km 258 124 Female 14 Ages 35 - 39 Frances Foster 397 02:13:41
4,000 4km 259 125 Female 26 Ages 45 - 49 Joanna Espin 393 02:15:54
4,000 4km 260 135 Male 16 Ages 35 - 39 Iain Marshall 588 02:17:02
4,000 4km 261 126 Female 7 Ages 25 - 29 Emily Ward 494 02:18:49
4,000 4km 262 127 Female 19 Ages 55 - 59 Jane Crighton 382 02:22:32
4,000 4km 263 136 Male 14 Ages 40 - 44 William Scott 664 02:25:11
4,000 4km 264 137 Male 17 Ages 35 - 39 Richard Scott 671 02:25:12
4,000 4km 265 128 Female 15 Ages 40 - 44 Melanie Lewis 151 02:25:45
4,000 4km 266 129 Female 27 Ages 45 - 49 Chris Kerry 431 02:27:30
4,000 4km 267 130 Female 28 Ages 45 - 49 Lindsey-Jo Hartshorn 409 02:34:26
4,000 4km 268 138 Male 24 Ages 50 - 54 Stephen Ilett 576 02:57:18
EventId EventDescr Overall Pos Gender Pos Gender Categ Pos Category First name Last name Race num Club Time

Swim Rutland 2022 8km results

EventId EventDescr Overall Pos Gender Pos Gender Categ Pos Category First name Last name Race num Club Time Split time
8,000 8km 1 1 Male 1 Ages 30 - 34 Matthew Breckon 731 Crawley Swimming Club 01:51:12 00:55
8,000 8km 2 2 Male 1 Ages 25 - 29 William Davies 736 BRJ 02:04:03 01:02
8,000 8km 3 1 Female 1 Ages 30 - 34 Emma Gardner 709 02:04:40 00:54
8,000 8km 4 3 Male 1 Ages 45 - 49 Simon Marsden 754 Barnet Copthall 02:08:09 01:02
8,000 8km 5 4 Male 1 Ages 50 - 54 Phillip Jenkins 749 02:17:02 01:06
8,000 8km 6 5 Male 1 Ages 60 - 64 Gordon Baird 729 02:24:58 01:11
8,000 8km 7 6 Male 1 Ages 55 - 59 Nick Fowkes 741 Kettering Swimming Club 02:25:56 01:10
8,000 8km 8 2 Female 1 Ages 25 - 29 Laura Vuylsteke 727 Swim45 02:26:19 01:11
8,000 8km 9 7 Male 1 Ages 35 - 39 Alex Jenkins 748 Camphill Edwardians Swimming Club 02:27:45 01:13
8,000 8km 10 3 Female 1 Ages 60 - 64 Jacquie Cooper 706 02:30:20 01:13
8,000 8km 11 8 Male 2 Ages 35 - 39 Adam Kiziak 752 02:32:37 01:12
8,000 8km 12 9 Male 2 Ages 50 - 54 Justin Mcdermott 756 East London Triathletes 02:34:56 01:14
8,000 8km 13 10 Male 1 Ages 40 - 44 Mark Townsend 773 02:35:25 01:12
8,000 8km 14 11 Male 3 Ages 50 - 54 Lewis King 751 02:36:04 01:14
8,000 8km 15 12 Male 2 Ages 40 - 44 Tim Barry 730 Greenlight 02:38:03 01:17
8,000 8km 16 13 Male 2 Ages 45 - 49 Neil Shepherd 768 Deepings Swimming Club 02:38:36 01:17
8,000 8km 17 4 Female 1 Ages 35 - 39 Kim Mousley 717 02:38:39 01:17
8,000 8km 18 14 Male 3 Ages 35 - 39 James Swift 771 02:38:39 01:19
8,000 8km 19 15 Male 3 Ages 45 - 49 James And Bucher 733 02:38:44 01:14
8,000 8km 20 16 Male 4 Ages 35 - 39 Ian Hansford 743 100% Tri 02:38:46 01:18
8,000 8km 21 5 Female 2 Ages 25 - 29 Victoria Huntingford 421 02:39:15 01:17
8,000 8km 22 17 Male 4 Ages 45 - 49 Neil Reid 765 Deeping Swim Club 02:40:47 01:22
8,000 8km 23 18 Male 5 Ages 45 - 49 Austen Morgan 757 Chasewater Open Water Swim Club 02:40:47 01:17
8,000 8km 24 6 Female 1 Ages 45 - 49 Sarah Lockington 715 02:40:49 01:18
8,000 8km 25 7 Female 3 Ages 25 - 29 Rowann Raynor 720 TFN 02:41:28 01:18
8,000 8km 26 19 Male 2 Ages 25 - 29 Robert Swinburne 772 02:41:52 01:16
8,000 8km 27 8 Female 1 Ages 40 - 44 Verity Allsopp 702 Leighton Buzzard Tri Club 02:42:17 01:18
8,000 8km 28 9 Female 2 Ages 30 - 34 Emily Huntingford 420 02:42:48 01:17
8,000 8km 29 10 Female 2 Ages 35 - 39 Hannan Hammond 712 Deepings Swimming Club 02:44:54 01:20
8,000 8km 30 20 Male 1 Ages 65 - 69 David Clarkstone 735 Daventry Dolphins 02:45:18 01:19
8,000 8km 31 11 Female 3 Ages 35 - 39 Rachel Burton 703 WVTri 02:47:07 01:18
8,000 8km 32 12 Female 2 Ages 40 - 44 Nancy Reed 721 MMSC 02:47:46 01:21
8,000 8km 33 13 Female 3 Ages 40 - 44 Kate Rose 723 02:47:48 01:21
8,000 8km 34 21 Male 6 Ages 45 - 49 Adam Boon 780 02:49:46 01:23
8,000 8km 35 14 Female 1 Ages 55 - 59 Caroline Sale 725 02:52:02 01:26
8,000 8km 36 22 Male 5 Ages 35 - 39 Ben Harrison 332 02:53:07 01:19
8,000 8km 37 23 Male 3 Ages 25 - 29 Peter Arnold 728 02:54:57 01:23
8,000 8km 38 15 Female 4 Ages 40 - 44 Esther Rousay Wiley 724 02:55:12 01:26
8,000 8km 39 24 Male 2 Ages 55 - 59 David Watt 645 02:55:57 01:23
8,000 8km 40 25 Male 3 Ages 55 - 59 Peter Catlow 50 02:57:09 01:27
8,000 8km 41 16 Female 3 Ages 30 - 34 Naomi Campion 704 02:58:23 01:25
8,000 8km 42 26 Male 7 Ages 45 - 49 Bo Mengel Jorgensen 750 Swimyourswim 02:58:44 01:20
8,000 8km 43 17 Female 1 Ages 18 - 24 Rosie Allen 701 03:01:36 01:26
8,000 8km 44 27 Male 4 Ages 55 - 59 Julian Lloyd 753 03:05:43 01:20
8,000 8km 45 28 Male 4 Ages 50 - 54 Simon Osborne 762 Race Hub 03:06:44
8,000 8km 46 29 Male 3 Ages 40 - 44 Craig Stephenson 770 03:10:22 01:26
8,000 8km 47 30 Male 2 Ages 60 - 64 Paul Rowan 766 03:13:14 12:00
8,000 8km 48 31 Male 8 Ages 45 - 49 Dan Whittaker 776 03:15:44 01:30
8,000 8km 49 32 Male 4 Ages 40 - 44 Ben Donovan 738 03:22:49 01:32
EventId EventDescr Overall Pos Gender Pos Gender Categ Pos Category First name Last name Race num Club Time Split time

Swim Rutland 2022 8k-4km dropdown results

EventId Overall Pos Gender Pos Gender Categ Pos Category First name Last name Race num Club Time
8,001 1 1 Female 1 Ages 45 - 49 Julie Scott 726 City of Cambridge Swimming Club 01:14:46
8,001 2 1 Male 1 Ages 25 - 29 Connor James 747 Swim Lakeside 01:26:02
8,001 3 2 Male 1 Ages 45 - 49 Jason Scatcherd 767 01:33:48
8,001 4 3 Male 1 Ages 70 - 74 Brian Weaver 775 01:33:51
8,001 5 2 Female 2 Ages 45 - 49 Mo Pennock 718 "Evolve Endurance 01:34:02
8,001 6 4 Male 1 Ages 55 - 59 Ben Alan Inns 745 01:34:16
8,001 7 3 Female 1 Ages 40 - 44 Jayne Crellin 707 01:34:31
8,001 8 5 Male 2 Ages 55 - 59 Rob Brunswick 732 01:35:56
8,001 9 6 Male 2 Ages 45 - 49 Edward Ball 779 01:36:49
8,001 10 4 Female 1 Ages 50 - 54 Jackie Colby 705 01:39:05
8,001 11 5 Female 2 Ages 40 - 44 Victoria Critchlow 708 01:40:13
8,001 12 7 Male 3 Ages 55 - 59 Howard Davis 737 FEEDOM TRI 01:40:35
8,001 13 8 Male 1 Ages 40 - 44 Darren Price 764 01:44:45
8,001 14 6 Female 2 Ages 50 - 54 Carolyn Giles 710 01:50:28
8,001 15 9 Male 1 Ages 50 - 54 Andy Murfitt 758 Ely Tri Club 02:47:54
8,001 16 7 Female 3 Ages 45 - 49 Claire Goodson 711 Huddersfield Triathlon club 02:50:43
8,001 17 10 Male 1 Ages 30 - 34 Ross Murray 759 02:54:31
EventId Overall Pos Gender Pos Gender Categ Pos Category First name Last name Race num Club Time

facebook
twitter